<?xml version="1.0" encoding="UTF-8" standalone="no" ?>
<gpx xmlns="http://www.topografix.com/GPX/1/1" xmlns:xsi="http://www.w3.org/2001/XMLSchema-instance" xsi:schemaLocation="http://www.topografix.com/GPX/1/1 http://www.topografix.com/GPX/1/1/gpx.xsd" version="1.1" creator="VisuGPX - https://www.visugpx.com">
  <metadata>
    <name>lundi 2016 09 26</name>
    <desc><![CDATA[rando du lundi en groupe d'amis]]></desc>
  </metadata>
  <trk>
    <name><![CDATA[Rando Roller du lundi 26 septembre 2016]]></name>
    <trkseg>
      <trkpt lat="48.85753" lon="2.34717">
        <ele>39.799999237061</ele>
        <time>2016-09-26T18:20:32.000Z</time>
      </trkpt>
      <trkpt lat="48.85744" lon="2.34725">
        <ele>40.400001525879</ele>
        <time>2016-09-26T18:20:53.000Z</time>
      </trkpt>
      <trkpt lat="48.85744" lon="2.34726">
        <ele>40.400001525879</ele>
        <time>2016-09-26T18:21:00.000Z</time>
      </trkpt>
      <trkpt lat="48.85744" lon="2.34716">
        <ele>40.200000762939</ele>
        <time>2016-09-26T18:21:05.000Z</time>
      </trkpt>
      <trkpt lat="48.8574" lon="2.34705">
        <ele>40</ele>
        <time>2016-09-26T18:21:10.000Z</time>
      </trkpt>
      <trkpt lat="48.85698" lon="2.34678">
        <ele>40.799999237061</ele>
        <time>2016-09-26T18:21:27.000Z</time>
      </trkpt>
      <trkpt lat="48.85656" lon="2.34654">
        <ele>43.799999237061</ele>
        <time>2016-09-26T18:21:46.000Z</time>
      </trkpt>
      <trkpt lat="48.85613" lon="2.34634">
        <ele>47.400001525879</ele>
        <time>2016-09-26T18:22:03.000Z</time>
      </trkpt>
      <trkpt lat="48.85566" lon="2.34619">
        <ele>47.599998474121</ele>
        <time>2016-09-26T18:22:14.000Z</time>
      </trkpt>
      <trkpt lat="48.85549" lon="2.34602">
        <ele>47.400001525879</ele>
        <time>2016-09-26T18:22:18.000Z</time>
      </trkpt>
      <trkpt lat="48.85513" lon="2.34556">
        <ele>45.799999237061</ele>
        <time>2016-09-26T18:22:29.000Z</time>
      </trkpt>
      <trkpt lat="48.85477" lon="2.34508">
        <ele>42.799999237061</ele>
        <time>2016-09-26T18:22:39.000Z</time>
      </trkpt>
      <trkpt lat="48.85433" lon="2.34478">
        <ele>40.799999237061</ele>
        <time>2016-09-26T18:22:50.000Z</time>
      </trkpt>
      <trkpt lat="48.85395" lon="2.34439">
        <ele>42</ele>
        <time>2016-09-26T18:23:11.000Z</time>
      </trkpt>
      <trkpt lat="48.85387" lon="2.34436">
        <ele>42.599998474121</ele>
        <time>2016-09-26T18:23:28.000Z</time>
      </trkpt>
      <trkpt lat="48.85346" lon="2.34412">
        <ele>44.799999237061</ele>
        <time>2016-09-26T18:23:42.000Z</time>
      </trkpt>
      <trkpt lat="48.85342" lon="2.34411">
        <ele>45.200000762939</ele>
        <time>2016-09-26T18:23:43.000Z</time>
      </trkpt>
      <trkpt lat="48.85298" lon="2.34391">
        <ele>48.200000762939</ele>
        <time>2016-09-26T18:23:53.000Z</time>
      </trkpt>
      <trkpt lat="48.85253" lon="2.34372">
        <ele>50</ele>
        <time>2016-09-26T18:24:04.000Z</time>
      </trkpt>
      <trkpt lat="48.85211" lon="2.34349">
        <ele>49.400001525879</ele>
        <time>2016-09-26T18:24:15.000Z</time>
      </trkpt>
      <trkpt lat="48.85167" lon="2.34329">
        <ele>48.400001525879</ele>
        <time>2016-09-26T18:24:28.000Z</time>
      </trkpt>
      <trkpt lat="48.85121" lon="2.34315">
        <ele>47.799999237061</ele>
        <time>2016-09-26T18:24:41.000Z</time>
      </trkpt>
      <trkpt lat="48.85077" lon="2.34292">
        <ele>49.400001525879</ele>
        <time>2016-09-26T18:24:56.000Z</time>
      </trkpt>
      <trkpt lat="48.85051" lon="2.34277">
        <ele>51</ele>
        <time>2016-09-26T18:25:07.000Z</time>
      </trkpt>
      <trkpt lat="48.85015" lon="2.34317">
        <ele>54.200000762939</ele>
        <time>2016-09-26T18:25:25.000Z</time>
      </trkpt>
      <trkpt lat="48.84995" lon="2.3438">
        <ele>55.599998474121</ele>
        <time>2016-09-26T18:25:40.000Z</time>
      </trkpt>
      <trkpt lat="48.84986" lon="2.34418">
        <ele>56.200000762939</ele>
        <time>2016-09-26T18:25:47.000Z</time>
      </trkpt>
      <trkpt lat="48.84966" lon="2.34478">
        <ele>56</ele>
        <time>2016-09-26T18:26:21.000Z</time>
      </trkpt>
      <trkpt lat="48.84966" lon="2.3448">
        <ele>55.799999237061</ele>
        <time>2016-09-26T18:26:22.000Z</time>
      </trkpt>
      <trkpt lat="48.84956" lon="2.34551">
        <ele>52.799999237061</ele>
        <time>2016-09-26T18:26:38.000Z</time>
      </trkpt>
      <trkpt lat="48.84935" lon="2.34618">
        <ele>52.599998474121</ele>
        <time>2016-09-26T18:26:50.000Z</time>
      </trkpt>
      <trkpt lat="48.84926" lon="2.34645">
        <ele>54</ele>
        <time>2016-09-26T18:26:55.000Z</time>
      </trkpt>
      <trkpt lat="48.84918" lon="2.34674">
        <ele>54.599998474121</ele>
        <time>2016-09-26T18:27:00.000Z</time>
      </trkpt>
      <trkpt lat="48.84901" lon="2.34741">
        <ele>55.200000762939</ele>
        <time>2016-09-26T18:27:12.000Z</time>
      </trkpt>
      <trkpt lat="48.84887" lon="2.34812">
        <ele>55.799999237061</ele>
        <time>2016-09-26T18:27:23.000Z</time>
      </trkpt>
      <trkpt lat="48.84868" lon="2.3488">
        <ele>56.599998474121</ele>
        <time>2016-09-26T18:27:33.000Z</time>
      </trkpt>
      <trkpt lat="48.84854" lon="2.3493">
        <ele>54</ele>
        <time>2016-09-26T18:27:40.000Z</time>
      </trkpt>
      <trkpt lat="48.84833" lon="2.34993">
        <ele>51</ele>
        <time>2016-09-26T18:27:50.000Z</time>
      </trkpt>
      <trkpt lat="48.84825" lon="2.35022">
        <ele>50</ele>
        <time>2016-09-26T18:27:55.000Z</time>
      </trkpt>
      <trkpt lat="48.84822" lon="2.35034">
        <ele>49.400001525879</ele>
        <time>2016-09-26T18:27:57.000Z</time>
      </trkpt>
      <trkpt lat="48.84813" lon="2.35056">
        <ele>48.799999237061</ele>
        <time>2016-09-26T18:28:01.000Z</time>
      </trkpt>
      <trkpt lat="48.84797" lon="2.35125">
        <ele>45.200000762939</ele>
        <time>2016-09-26T18:28:13.000Z</time>
      </trkpt>
      <trkpt lat="48.8478" lon="2.35191">
        <ele>42.200000762939</ele>
        <time>2016-09-26T18:28:23.000Z</time>
      </trkpt>
      <trkpt lat="48.84761" lon="2.35257">
        <ele>41.599998474121</ele>
        <time>2016-09-26T18:28:34.000Z</time>
      </trkpt>
      <trkpt lat="48.84742" lon="2.35321">
        <ele>40.200000762939</ele>
        <time>2016-09-26T18:28:47.000Z</time>
      </trkpt>
      <trkpt lat="48.84711" lon="2.35372">
        <ele>41.200000762939</ele>
        <time>2016-09-26T18:29:01.000Z</time>
      </trkpt>
      <trkpt lat="48.84675" lon="2.35418">
        <ele>43.200000762939</ele>
        <time>2016-09-26T18:29:13.000Z</time>
      </trkpt>
      <trkpt lat="48.8466" lon="2.35426">
        <ele>44.599998474121</ele>
        <time>2016-09-26T18:29:16.000Z</time>
      </trkpt>
      <trkpt lat="48.84615" lon="2.35441">
        <ele>48.200000762939</ele>
        <time>2016-09-26T18:29:26.000Z</time>
      </trkpt>
      <trkpt lat="48.84568" lon="2.35458">
        <ele>49.400001525879</ele>
        <time>2016-09-26T18:29:37.000Z</time>
      </trkpt>
      <trkpt lat="48.84559" lon="2.35461">
        <ele>49.400001525879</ele>
        <time>2016-09-26T18:29:39.000Z</time>
      </trkpt>
      <trkpt lat="48.84547" lon="2.35466">
        <ele>49.400001525879</ele>
        <time>2016-09-26T18:29:42.000Z</time>
      </trkpt>
      <trkpt lat="48.84524" lon="2.35472">
        <ele>49.599998474121</ele>
        <time>2016-09-26T18:29:48.000Z</time>
      </trkpt>
      <trkpt lat="48.84483" lon="2.35477">
        <ele>50</ele>
        <time>2016-09-26T18:29:59.000Z</time>
      </trkpt>
      <trkpt lat="48.84438" lon="2.35486">
        <ele>48.799999237061</ele>
        <time>2016-09-26T18:30:11.000Z</time>
      </trkpt>
      <trkpt lat="48.84392" lon="2.35491">
        <ele>50.400001525879</ele>
        <time>2016-09-26T18:30:24.000Z</time>
      </trkpt>
      <trkpt lat="48.84376" lon="2.35499">
        <ele>51</ele>
        <time>2016-09-26T18:30:34.000Z</time>
      </trkpt>
      <trkpt lat="48.84364" lon="2.35437">
        <ele>53</ele>
        <time>2016-09-26T18:30:55.000Z</time>
      </trkpt>
      <trkpt lat="48.84318" lon="2.35438">
        <ele>50.200000762939</ele>
        <time>2016-09-26T18:31:10.000Z</time>
      </trkpt>
      <trkpt lat="48.84273" lon="2.3545">
        <ele>47.400001525879</ele>
        <time>2016-09-26T18:31:19.000Z</time>
      </trkpt>
      <trkpt lat="48.84225" lon="2.3546">
        <ele>45.599998474121</ele>
        <time>2016-09-26T18:31:32.000Z</time>
      </trkpt>
      <trkpt lat="48.84202" lon="2.35465">
        <ele>44.200000762939</ele>
        <time>2016-09-26T18:31:38.000Z</time>
      </trkpt>
      <trkpt lat="48.84189" lon="2.35466">
        <ele>43.400001525879</ele>
        <time>2016-09-26T18:31:41.000Z</time>
      </trkpt>
      <trkpt lat="48.84144" lon="2.35474">
        <ele>42.400001525879</ele>
        <time>2016-09-26T18:31:52.000Z</time>
      </trkpt>
      <trkpt lat="48.84097" lon="2.35484">
        <ele>43</ele>
        <time>2016-09-26T18:32:06.000Z</time>
      </trkpt>
      <trkpt lat="48.84087" lon="2.35472">
        <ele>42</ele>
        <time>2016-09-26T18:32:09.000Z</time>
      </trkpt>
      <trkpt lat="48.84082" lon="2.35458">
        <ele>41.200000762939</ele>
        <time>2016-09-26T18:32:11.000Z</time>
      </trkpt>
      <trkpt lat="48.84064" lon="2.35412">
        <ele>38.599998474121</ele>
        <time>2016-09-26T18:32:20.000Z</time>
      </trkpt>
      <trkpt lat="48.84053" lon="2.35411">
        <ele>38.200000762939</ele>
        <time>2016-09-26T18:32:23.000Z</time>
      </trkpt>
      <trkpt lat="48.84008" lon="2.35441">
        <ele>38.400001525879</ele>
        <time>2016-09-26T18:32:33.000Z</time>
      </trkpt>
      <trkpt lat="48.83999" lon="2.35448">
        <ele>38.799999237061</ele>
        <time>2016-09-26T18:32:35.000Z</time>
      </trkpt>
      <trkpt lat="48.83954" lon="2.35475">
        <ele>39.200000762939</ele>
        <time>2016-09-26T18:32:46.000Z</time>
      </trkpt>
      <trkpt lat="48.8393" lon="2.35474">
        <ele>39.400001525879</ele>
        <time>2016-09-26T18:32:54.000Z</time>
      </trkpt>
      <trkpt lat="48.83927" lon="2.35463">
        <ele>39.400001525879</ele>
        <time>2016-09-26T18:32:56.000Z</time>
      </trkpt>
      <trkpt lat="48.83911" lon="2.35397">
        <ele>39.799999237061</ele>
        <time>2016-09-26T18:33:07.000Z</time>
      </trkpt>
      <trkpt lat="48.83897" lon="2.35343">
        <ele>39.599998474121</ele>
        <time>2016-09-26T18:33:19.000Z</time>
      </trkpt>
      <trkpt lat="48.83851" lon="2.35358">
        <ele>41.799999237061</ele>
        <time>2016-09-26T18:33:37.000Z</time>
      </trkpt>
      <trkpt lat="48.83848" lon="2.35357">
        <ele>42.200000762939</ele>
        <time>2016-09-26T18:33:39.000Z</time>
      </trkpt>
      <trkpt lat="48.83822" lon="2.35315">
        <ele>44.200000762939</ele>
        <time>2016-09-26T18:33:51.000Z</time>
      </trkpt>
      <trkpt lat="48.83794" lon="2.35259">
        <ele>46.200000762939</ele>
        <time>2016-09-26T18:34:00.000Z</time>
      </trkpt>
      <trkpt lat="48.83778" lon="2.35227">
        <ele>47.400001525879</ele>
        <time>2016-09-26T18:34:08.000Z</time>
      </trkpt>
      <trkpt lat="48.83735" lon="2.35253">
        <ele>49.400001525879</ele>
        <time>2016-09-26T18:34:26.000Z</time>
      </trkpt>
      <trkpt lat="48.83731" lon="2.35254">
        <ele>49.599998474121</ele>
        <time>2016-09-26T18:34:28.000Z</time>
      </trkpt>
      <trkpt lat="48.83725" lon="2.35258">
        <ele>50</ele>
        <time>2016-09-26T18:34:31.000Z</time>
      </trkpt>
      <trkpt lat="48.83706" lon="2.35275">
        <ele>51</ele>
        <time>2016-09-26T18:35:10.000Z</time>
      </trkpt>
      <trkpt lat="48.83692" lon="2.35319">
        <ele>51.799999237061</ele>
        <time>2016-09-26T18:35:33.000Z</time>
      </trkpt>
      <trkpt lat="48.83661" lon="2.35348">
        <ele>53.200000762939</ele>
        <time>2016-09-26T18:35:52.000Z</time>
      </trkpt>
      <trkpt lat="48.83661" lon="2.35371">
        <ele>53.400001525879</ele>
        <time>2016-09-26T18:36:09.000Z</time>
      </trkpt>
      <trkpt lat="48.83694" lon="2.3542">
        <ele>52.799999237061</ele>
        <time>2016-09-26T18:36:23.000Z</time>
      </trkpt>
      <trkpt lat="48.83698" lon="2.35424">
        <ele>52.799999237061</ele>
        <time>2016-09-26T18:36:24.000Z</time>
      </trkpt>
      <trkpt lat="48.83709" lon="2.35446">
        <ele>52.599998474121</ele>
        <time>2016-09-26T18:36:29.000Z</time>
      </trkpt>
      <trkpt lat="48.83722" lon="2.35503">
        <ele>53.200000762939</ele>
        <time>2016-09-26T18:36:44.000Z</time>
      </trkpt>
      <trkpt lat="48.83676" lon="2.35499">
        <ele>55.400001525879</ele>
        <time>2016-09-26T18:36:55.000Z</time>
      </trkpt>
      <trkpt lat="48.83643" lon="2.35491">
        <ele>56</ele>
        <time>2016-09-26T18:37:02.000Z</time>
      </trkpt>
      <trkpt lat="48.83629" lon="2.35488">
        <ele>56.400001525879</ele>
        <time>2016-09-26T18:37:05.000Z</time>
      </trkpt>
      <trkpt lat="48.8359" lon="2.35464">
        <ele>56.599998474121</ele>
        <time>2016-09-26T18:37:14.000Z</time>
      </trkpt>
      <trkpt lat="48.83581" lon="2.35451">
        <ele>56.400001525879</ele>
        <time>2016-09-26T18:37:17.000Z</time>
      </trkpt>
      <trkpt lat="48.83544" lon="2.35403">
        <ele>55.799999237061</ele>
        <time>2016-09-26T18:37:28.000Z</time>
      </trkpt>
      <trkpt lat="48.83511" lon="2.35355">
        <ele>55.400001525879</ele>
        <time>2016-09-26T18:37:43.000Z</time>
      </trkpt>
      <trkpt lat="48.8347" lon="2.35344">
        <ele>55.799999237061</ele>
        <time>2016-09-26T18:38:23.000Z</time>
      </trkpt>
      <trkpt lat="48.83469" lon="2.3534">
        <ele>55.799999237061</ele>
        <time>2016-09-26T18:38:25.000Z</time>
      </trkpt>
      <trkpt lat="48.83463" lon="2.35329">
        <ele>55.599998474121</ele>
        <time>2016-09-26T18:38:30.000Z</time>
      </trkpt>
      <trkpt lat="48.83443" lon="2.35264">
        <ele>48.799999237061</ele>
        <time>2016-09-26T18:38:49.000Z</time>
      </trkpt>
      <trkpt lat="48.83399" lon="2.35235">
        <ele>46.200000762939</ele>
        <time>2016-09-26T18:39:04.000Z</time>
      </trkpt>
      <trkpt lat="48.83356" lon="2.35199">
        <ele>43.400001525879</ele>
        <time>2016-09-26T18:39:17.000Z</time>
      </trkpt>
      <trkpt lat="48.83314" lon="2.35177">
        <ele>46</ele>
        <time>2016-09-26T18:39:29.000Z</time>
      </trkpt>
      <trkpt lat="48.83281" lon="2.35128">
        <ele>44.599998474121</ele>
        <time>2016-09-26T18:39:38.000Z</time>
      </trkpt>
      <trkpt lat="48.83244" lon="2.35083">
        <ele>44</ele>
        <time>2016-09-26T18:39:51.000Z</time>
      </trkpt>
      <trkpt lat="48.83241" lon="2.35079">
        <ele>43.799999237061</ele>
        <time>2016-09-26T18:39:52.000Z</time>
      </trkpt>
      <trkpt lat="48.83214" lon="2.3503">
        <ele>43</ele>
        <time>2016-09-26T18:40:09.000Z</time>
      </trkpt>
      <trkpt lat="48.83184" lon="2.35075">
        <ele>49</ele>
        <time>2016-09-26T18:40:33.000Z</time>
      </trkpt>
      <trkpt lat="48.83214" lon="2.35127">
        <ele>50.599998474121</ele>
        <time>2016-09-26T18:40:51.000Z</time>
      </trkpt>
      <trkpt lat="48.83219" lon="2.3516">
        <ele>52.599998474121</ele>
        <time>2016-09-26T18:41:00.000Z</time>
      </trkpt>
      <trkpt lat="48.83222" lon="2.35166">
        <ele>52.599998474121</ele>
        <time>2016-09-26T18:41:03.000Z</time>
      </trkpt>
      <trkpt lat="48.8322" lon="2.35177">
        <ele>53.200000762939</ele>
        <time>2016-09-26T18:41:07.000Z</time>
      </trkpt>
      <trkpt lat="48.83191" lon="2.3523">
        <ele>58.799999237061</ele>
        <time>2016-09-26T18:41:22.000Z</time>
      </trkpt>
      <trkpt lat="48.83174" lon="2.35268">
        <ele>60.400001525879</ele>
        <time>2016-09-26T18:42:53.000Z</time>
      </trkpt>
      <trkpt lat="48.83166" lon="2.35273">
        <ele>60.599998474121</ele>
        <time>2016-09-26T18:43:26.000Z</time>
      </trkpt>
      <trkpt lat="48.8312" lon="2.35277">
        <ele>60.799999237061</ele>
        <time>2016-09-26T18:43:44.000Z</time>
      </trkpt>
      <trkpt lat="48.83072" lon="2.35277">
        <ele>62.599998474121</ele>
        <time>2016-09-26T18:44:02.000Z</time>
      </trkpt>
      <trkpt lat="48.83026" lon="2.35284">
        <ele>65.199996948242</ele>
        <time>2016-09-26T18:44:19.000Z</time>
      </trkpt>
      <trkpt lat="48.82979" lon="2.35289">
        <ele>66</ele>
        <time>2016-09-26T18:44:33.000Z</time>
      </trkpt>
      <trkpt lat="48.82932" lon="2.3529">
        <ele>67.199996948242</ele>
        <time>2016-09-26T18:44:46.000Z</time>
      </trkpt>
      <trkpt lat="48.82885" lon="2.35278">
        <ele>68.400001525879</ele>
        <time>2016-09-26T18:44:58.000Z</time>
      </trkpt>
      <trkpt lat="48.82838" lon="2.35279">
        <ele>68.400001525879</ele>
        <time>2016-09-26T18:45:12.000Z</time>
      </trkpt>
      <trkpt lat="48.82806" lon="2.35265">
        <ele>65.800003051758</ele>
        <time>2016-09-26T18:45:32.000Z</time>
      </trkpt>
      <trkpt lat="48.82768" lon="2.35226">
        <ele>63</ele>
        <time>2016-09-26T18:45:46.000Z</time>
      </trkpt>
      <trkpt lat="48.8273" lon="2.35189">
        <ele>61.200000762939</ele>
        <time>2016-09-26T18:45:56.000Z</time>
      </trkpt>
      <trkpt lat="48.82722" lon="2.3518">
        <ele>60.799999237061</ele>
        <time>2016-09-26T18:45:58.000Z</time>
      </trkpt>
      <trkpt lat="48.82685" lon="2.35141">
        <ele>60.200000762939</ele>
        <time>2016-09-26T18:46:06.000Z</time>
      </trkpt>
      <trkpt lat="48.82677" lon="2.3513">
        <ele>60.799999237061</ele>
        <time>2016-09-26T18:46:08.000Z</time>
      </trkpt>
      <trkpt lat="48.82635" lon="2.35096">
        <ele>61.799999237061</ele>
        <time>2016-09-26T18:46:17.000Z</time>
      </trkpt>
      <trkpt lat="48.82596" lon="2.35056">
        <ele>61.200000762939</ele>
        <time>2016-09-26T18:46:29.000Z</time>
      </trkpt>
      <trkpt lat="48.8259" lon="2.35042">
        <ele>60.799999237061</ele>
        <time>2016-09-26T18:46:56.000Z</time>
      </trkpt>
      <trkpt lat="48.82587" lon="2.35036">
        <ele>60.599998474121</ele>
        <time>2016-09-26T18:46:57.000Z</time>
      </trkpt>
      <trkpt lat="48.82581" lon="2.34973">
        <ele>59</ele>
        <time>2016-09-26T18:47:09.000Z</time>
      </trkpt>
      <trkpt lat="48.82579" lon="2.34953">
        <ele>58</ele>
        <time>2016-09-26T18:47:12.000Z</time>
      </trkpt>
      <trkpt lat="48.82571" lon="2.34905">
        <ele>55.599998474121</ele>
        <time>2016-09-26T18:47:19.000Z</time>
      </trkpt>
      <trkpt lat="48.82576" lon="2.34833">
        <ele>53.200000762939</ele>
        <time>2016-09-26T18:47:28.000Z</time>
      </trkpt>
      <trkpt lat="48.82573" lon="2.34806">
        <ele>53.599998474121</ele>
        <time>2016-09-26T18:47:32.000Z</time>
      </trkpt>
      <trkpt lat="48.82573" lon="2.34732">
        <ele>55.200000762939</ele>
        <time>2016-09-26T18:47:42.000Z</time>
      </trkpt>
      <trkpt lat="48.82575" lon="2.34718">
        <ele>55</ele>
        <time>2016-09-26T18:47:44.000Z</time>
      </trkpt>
      <trkpt lat="48.82581" lon="2.34683">
        <ele>55.599998474121</ele>
        <time>2016-09-26T18:47:49.000Z</time>
      </trkpt>
      <trkpt lat="48.82595" lon="2.34612">
        <ele>56.200000762939</ele>
        <time>2016-09-26T18:47:59.000Z</time>
      </trkpt>
      <trkpt lat="48.82607" lon="2.34545">
        <ele>55.599998474121</ele>
        <time>2016-09-26T18:48:10.000Z</time>
      </trkpt>
      <trkpt lat="48.82608" lon="2.34529">
        <ele>55</ele>
        <time>2016-09-26T18:48:12.000Z</time>
      </trkpt>
      <trkpt lat="48.82616" lon="2.34498">
        <ele>53.799999237061</ele>
        <time>2016-09-26T18:48:17.000Z</time>
      </trkpt>
      <trkpt lat="48.82621" lon="2.34452">
        <ele>52.599998474121</ele>
        <time>2016-09-26T18:48:23.000Z</time>
      </trkpt>
      <trkpt lat="48.8263" lon="2.3438">
        <ele>50.799999237061</ele>
        <time>2016-09-26T18:48:31.000Z</time>
      </trkpt>
      <trkpt lat="48.82637" lon="2.34306">
        <ele>50.200000762939</ele>
        <time>2016-09-26T18:48:40.000Z</time>
      </trkpt>
      <trkpt lat="48.82639" lon="2.343">
        <ele>50</ele>
        <time>2016-09-26T18:48:41.000Z</time>
      </trkpt>
      <trkpt lat="48.82652" lon="2.34233">
        <ele>49.200000762939</ele>
        <time>2016-09-26T18:48:55.000Z</time>
      </trkpt>
      <trkpt lat="48.82661" lon="2.34164">
        <ele>50.400001525879</ele>
        <time>2016-09-26T18:49:07.000Z</time>
      </trkpt>
      <trkpt lat="48.82668" lon="2.34093">
        <ele>51.599998474121</ele>
        <time>2016-09-26T18:49:20.000Z</time>
      </trkpt>
      <trkpt lat="48.82673" lon="2.34022">
        <ele>50.599998474121</ele>
        <time>2016-09-26T18:49:33.000Z</time>
      </trkpt>
      <trkpt lat="48.82673" lon="2.33996">
        <ele>50.200000762939</ele>
        <time>2016-09-26T18:49:37.000Z</time>
      </trkpt>
      <trkpt lat="48.82676" lon="2.33962">
        <ele>50.799999237061</ele>
        <time>2016-09-26T18:49:41.000Z</time>
      </trkpt>
      <trkpt lat="48.82676" lon="2.33945">
        <ele>51.599998474121</ele>
        <time>2016-09-26T18:49:43.000Z</time>
      </trkpt>
      <trkpt lat="48.82682" lon="2.33906">
        <ele>53.400001525879</ele>
        <time>2016-09-26T18:49:48.000Z</time>
      </trkpt>
      <trkpt lat="48.82696" lon="2.33833">
        <ele>58.400001525879</ele>
        <time>2016-09-26T18:49:57.000Z</time>
      </trkpt>
      <trkpt lat="48.82698" lon="2.33805">
        <ele>58.599998474121</ele>
        <time>2016-09-26T18:50:00.000Z</time>
      </trkpt>
      <trkpt lat="48.82703" lon="2.33731">
        <ele>59.400001525879</ele>
        <time>2016-09-26T18:50:08.000Z</time>
      </trkpt>
      <trkpt lat="48.82708" lon="2.33705">
        <ele>59</ele>
        <time>2016-09-26T18:50:11.000Z</time>
      </trkpt>
      <trkpt lat="48.82717" lon="2.33634">
        <ele>60.799999237061</ele>
        <time>2016-09-26T18:50:19.000Z</time>
      </trkpt>
      <trkpt lat="48.82719" lon="2.33619">
        <ele>61</ele>
        <time>2016-09-26T18:50:21.000Z</time>
      </trkpt>
      <trkpt lat="48.82732" lon="2.33591">
        <ele>62.200000762939</ele>
        <time>2016-09-26T18:50:25.000Z</time>
      </trkpt>
      <trkpt lat="48.82742" lon="2.3355">
        <ele>65.800003051758</ele>
        <time>2016-09-26T18:50:30.000Z</time>
      </trkpt>
      <trkpt lat="48.82751" lon="2.33482">
        <ele>67</ele>
        <time>2016-09-26T18:50:42.000Z</time>
      </trkpt>
      <trkpt lat="48.8275" lon="2.33471">
        <ele>67.400001525879</ele>
        <time>2016-09-26T18:51:20.000Z</time>
      </trkpt>
      <trkpt lat="48.82716" lon="2.33481">
        <ele>68.599998474121</ele>
        <time>2016-09-26T18:52:22.000Z</time>
      </trkpt>
      <trkpt lat="48.82669" lon="2.33471">
        <ele>71</ele>
        <time>2016-09-26T18:52:45.000Z</time>
      </trkpt>
      <trkpt lat="48.82661" lon="2.33464">
        <ele>71.599998474121</ele>
        <time>2016-09-26T18:52:52.000Z</time>
      </trkpt>
      <trkpt lat="48.82614" lon="2.33456">
        <ele>73.599998474121</ele>
        <time>2016-09-26T18:53:14.000Z</time>
      </trkpt>
      <trkpt lat="48.82572" lon="2.3344">
        <ele>74</ele>
        <time>2016-09-26T18:53:56.000Z</time>
      </trkpt>
      <trkpt lat="48.82579" lon="2.33369">
        <ele>77</ele>
        <time>2016-09-26T18:54:16.000Z</time>
      </trkpt>
      <trkpt lat="48.82586" lon="2.33322">
        <ele>76.400001525879</ele>
        <time>2016-09-26T18:54:27.000Z</time>
      </trkpt>
      <trkpt lat="48.82595" lon="2.33254">
        <ele>78.400001525879</ele>
        <time>2016-09-26T18:54:40.000Z</time>
      </trkpt>
      <trkpt lat="48.82604" lon="2.33186">
        <ele>76.599998474121</ele>
        <time>2016-09-26T18:54:59.000Z</time>
      </trkpt>
      <trkpt lat="48.82605" lon="2.33174">
        <ele>76.199996948242</ele>
        <time>2016-09-26T18:55:09.000Z</time>
      </trkpt>
      <trkpt lat="48.82619" lon="2.33108">
        <ele>74.800003051758</ele>
        <time>2016-09-26T18:55:25.000Z</time>
      </trkpt>
      <trkpt lat="48.82593" lon="2.3305">
        <ele>75.599998474121</ele>
        <time>2016-09-26T18:55:37.000Z</time>
      </trkpt>
      <trkpt lat="48.8256" lon="2.33002">
        <ele>78.199996948242</ele>
        <time>2016-09-26T18:55:49.000Z</time>
      </trkpt>
      <trkpt lat="48.82525" lon="2.32956">
        <ele>77.599998474121</ele>
        <time>2016-09-26T18:56:00.000Z</time>
      </trkpt>
      <trkpt lat="48.82516" lon="2.3294">
        <ele>77</ele>
        <time>2016-09-26T18:56:03.000Z</time>
      </trkpt>
      <trkpt lat="48.82502" lon="2.32922">
        <ele>76.599998474121</ele>
        <time>2016-09-26T18:56:07.000Z</time>
      </trkpt>
      <trkpt lat="48.82466" lon="2.32882">
        <ele>75.599998474121</ele>
        <time>2016-09-26T18:56:18.000Z</time>
      </trkpt>
      <trkpt lat="48.82435" lon="2.32826">
        <ele>74</ele>
        <time>2016-09-26T18:56:33.000Z</time>
      </trkpt>
      <trkpt lat="48.82403" lon="2.32777">
        <ele>73.400001525879</ele>
        <time>2016-09-26T18:56:50.000Z</time>
      </trkpt>
      <trkpt lat="48.82399" lon="2.32769">
        <ele>73.199996948242</ele>
        <time>2016-09-26T18:56:52.000Z</time>
      </trkpt>
      <trkpt lat="48.82364" lon="2.32723">
        <ele>73.199996948242</ele>
        <time>2016-09-26T18:57:06.000Z</time>
      </trkpt>
      <trkpt lat="48.82322" lon="2.32695">
        <ele>75.199996948242</ele>
        <time>2016-09-26T18:57:18.000Z</time>
      </trkpt>
      <trkpt lat="48.8231" lon="2.3266">
        <ele>76</ele>
        <time>2016-09-26T18:58:44.000Z</time>
      </trkpt>
      <trkpt lat="48.82317" lon="2.3263">
        <ele>74.199996948242</ele>
        <time>2016-09-26T19:01:44.000Z</time>
      </trkpt>
      <trkpt lat="48.82318" lon="2.32626">
        <ele>74</ele>
        <time>2016-09-26T19:01:46.000Z</time>
      </trkpt>
      <trkpt lat="48.82319" lon="2.32622">
        <ele>74.199996948242</ele>
        <time>2016-09-26T19:01:48.000Z</time>
      </trkpt>
      <trkpt lat="48.82339" lon="2.32563">
        <ele>76</ele>
        <time>2016-09-26T19:02:07.000Z</time>
      </trkpt>
      <trkpt lat="48.82388" lon="2.32566">
        <ele>76.199996948242</ele>
        <time>2016-09-26T19:02:19.000Z</time>
      </trkpt>
      <trkpt lat="48.82415" lon="2.32517">
        <ele>75.599998474121</ele>
        <time>2016-09-26T19:02:35.000Z</time>
      </trkpt>
      <trkpt lat="48.82434" lon="2.32451">
        <ele>75.800003051758</ele>
        <time>2016-09-26T19:02:50.000Z</time>
      </trkpt>
      <trkpt lat="48.82459" lon="2.32398">
        <ele>75.199996948242</ele>
        <time>2016-09-26T19:03:04.000Z</time>
      </trkpt>
      <trkpt lat="48.82459" lon="2.32394">
        <ele>75</ele>
        <time>2016-09-26T19:03:06.000Z</time>
      </trkpt>
      <trkpt lat="48.82497" lon="2.32373">
        <ele>74.599998474121</ele>
        <time>2016-09-26T19:03:19.000Z</time>
      </trkpt>
      <trkpt lat="48.82516" lon="2.32308">
        <ele>76.199996948242</ele>
        <time>2016-09-26T19:03:28.000Z</time>
      </trkpt>
      <trkpt lat="48.82518" lon="2.32302">
        <ele>76</ele>
        <time>2016-09-26T19:03:29.000Z</time>
      </trkpt>
      <trkpt lat="48.82533" lon="2.32232">
        <ele>74</ele>
        <time>2016-09-26T19:03:39.000Z</time>
      </trkpt>
      <trkpt lat="48.82546" lon="2.32165">
        <ele>72.400001525879</ele>
        <time>2016-09-26T19:03:50.000Z</time>
      </trkpt>
      <trkpt lat="48.82555" lon="2.32138">
        <ele>73.400001525879</ele>
        <time>2016-09-26T19:03:58.000Z</time>
      </trkpt>
      <trkpt lat="48.82569" lon="2.32153">
        <ele>72.400001525879</ele>
        <time>2016-09-26T19:04:06.000Z</time>
      </trkpt>
      <trkpt lat="48.82596" lon="2.32099">
        <ele>68.400001525879</ele>
        <time>2016-09-26T19:04:19.000Z</time>
      </trkpt>
      <trkpt lat="48.82605" lon="2.32058">
        <ele>66.400001525879</ele>
        <time>2016-09-26T19:04:25.000Z</time>
      </trkpt>
      <trkpt lat="48.8261" lon="2.32036">
        <ele>66.599998474121</ele>
        <time>2016-09-26T19:04:28.000Z</time>
      </trkpt>
      <trkpt lat="48.82615" lon="2.32012">
        <ele>67.199996948242</ele>
        <time>2016-09-26T19:04:31.000Z</time>
      </trkpt>
      <trkpt lat="48.82627" lon="2.31939">
        <ele>69.199996948242</ele>
        <time>2016-09-26T19:04:40.000Z</time>
      </trkpt>
      <trkpt lat="48.82629" lon="2.3193">
        <ele>69.199996948242</ele>
        <time>2016-09-26T19:04:41.000Z</time>
      </trkpt>
      <trkpt lat="48.8264" lon="2.31863">
        <ele>67.800003051758</ele>
        <time>2016-09-26T19:04:48.000Z</time>
      </trkpt>
      <trkpt lat="48.82654" lon="2.31797">
        <ele>68.199996948242</ele>
        <time>2016-09-26T19:04:55.000Z</time>
      </trkpt>
      <trkpt lat="48.82658" lon="2.31778">
        <ele>68.199996948242</ele>
        <time>2016-09-26T19:04:57.000Z</time>
      </trkpt>
      <trkpt lat="48.82671" lon="2.31712">
        <ele>68</ele>
        <time>2016-09-26T19:05:05.000Z</time>
      </trkpt>
      <trkpt lat="48.82677" lon="2.31692">
        <ele>67.199996948242</ele>
        <time>2016-09-26T19:05:08.000Z</time>
      </trkpt>
      <trkpt lat="48.82708" lon="2.31636">
        <ele>66.199996948242</ele>
        <time>2016-09-26T19:05:17.000Z</time>
      </trkpt>
      <trkpt lat="48.82743" lon="2.31589">
        <ele>67.400001525879</ele>
        <time>2016-09-26T19:05:26.000Z</time>
      </trkpt>
      <trkpt lat="48.82779" lon="2.31543">
        <ele>69.599998474121</ele>
        <time>2016-09-26T19:05:36.000Z</time>
      </trkpt>
      <trkpt lat="48.82787" lon="2.3153">
        <ele>69.800003051758</ele>
        <time>2016-09-26T19:06:14.000Z</time>
      </trkpt>
      <trkpt lat="48.8283" lon="2.31534">
        <ele>70</ele>
        <time>2016-09-26T19:06:33.000Z</time>
      </trkpt>
      <trkpt lat="48.82864" lon="2.31479">
        <ele>68.800003051758</ele>
        <time>2016-09-26T19:06:44.000Z</time>
      </trkpt>
      <trkpt lat="48.8287" lon="2.31468">
        <ele>68</ele>
        <time>2016-09-26T19:06:45.000Z</time>
      </trkpt>
      <trkpt lat="48.82906" lon="2.31421">
        <ele>66</ele>
        <time>2016-09-26T19:06:55.000Z</time>
      </trkpt>
      <trkpt lat="48.82935" lon="2.31364">
        <ele>64.400001525879</ele>
        <time>2016-09-26T19:07:06.000Z</time>
      </trkpt>
      <trkpt lat="48.82956" lon="2.31331">
        <ele>63.799999237061</ele>
        <time>2016-09-26T19:07:13.000Z</time>
      </trkpt>
      <trkpt lat="48.82992" lon="2.31281">
        <ele>65</ele>
        <time>2016-09-26T19:07:22.000Z</time>
      </trkpt>
      <trkpt lat="48.83024" lon="2.3123">
        <ele>65.800003051758</ele>
        <time>2016-09-26T19:07:31.000Z</time>
      </trkpt>
      <trkpt lat="48.83057" lon="2.31182">
        <ele>66.199996948242</ele>
        <time>2016-09-26T19:07:41.000Z</time>
      </trkpt>
      <trkpt lat="48.83068" lon="2.31174">
        <ele>66.400001525879</ele>
        <time>2016-09-26T19:07:46.000Z</time>
      </trkpt>
      <trkpt lat="48.83071" lon="2.31176">
        <ele>66.400001525879</ele>
        <time>2016-09-26T19:07:49.000Z</time>
      </trkpt>
      <trkpt lat="48.83112" lon="2.312">
        <ele>67.599998474121</ele>
        <time>2016-09-26T19:08:11.000Z</time>
      </trkpt>
      <trkpt lat="48.83149" lon="2.31149">
        <ele>68.800003051758</ele>
        <time>2016-09-26T19:08:21.000Z</time>
      </trkpt>
      <trkpt lat="48.83183" lon="2.31098">
        <ele>67</ele>
        <time>2016-09-26T19:08:30.000Z</time>
      </trkpt>
      <trkpt lat="48.83208" lon="2.31051">
        <ele>62.400001525879</ele>
        <time>2016-09-26T19:08:43.000Z</time>
      </trkpt>
      <trkpt lat="48.83209" lon="2.31045">
        <ele>62</ele>
        <time>2016-09-26T19:08:45.000Z</time>
      </trkpt>
      <trkpt lat="48.83184" lon="2.30993">
        <ele>61</ele>
        <time>2016-09-26T19:08:58.000Z</time>
      </trkpt>
      <trkpt lat="48.83153" lon="2.30943">
        <ele>60.799999237061</ele>
        <time>2016-09-26T19:09:06.000Z</time>
      </trkpt>
      <trkpt lat="48.83139" lon="2.30918">
        <ele>60.799999237061</ele>
        <time>2016-09-26T19:09:09.000Z</time>
      </trkpt>
      <trkpt lat="48.8313" lon="2.30904">
        <ele>60.599998474121</ele>
        <time>2016-09-26T19:09:11.000Z</time>
      </trkpt>
      <trkpt lat="48.83098" lon="2.30866">
        <ele>60.599998474121</ele>
        <time>2016-09-26T19:09:17.000Z</time>
      </trkpt>
      <trkpt lat="48.8306" lon="2.3082">
        <ele>62.200000762939</ele>
        <time>2016-09-26T19:09:24.000Z</time>
      </trkpt>
      <trkpt lat="48.83019" lon="2.30772">
        <ele>65.599998474121</ele>
        <time>2016-09-26T19:09:31.000Z</time>
      </trkpt>
      <trkpt lat="48.8298" lon="2.30723">
        <ele>67.400001525879</ele>
        <time>2016-09-26T19:09:38.000Z</time>
      </trkpt>
      <trkpt lat="48.82943" lon="2.30678">
        <ele>66.599998474121</ele>
        <time>2016-09-26T19:09:45.000Z</time>
      </trkpt>
      <trkpt lat="48.8291" lon="2.30641">
        <ele>65.800003051758</ele>
        <time>2016-09-26T19:09:53.000Z</time>
      </trkpt>
      <trkpt lat="48.8287" lon="2.30606">
        <ele>65.599998474121</ele>
        <time>2016-09-26T19:10:08.000Z</time>
      </trkpt>
      <trkpt lat="48.82867" lon="2.30603">
        <ele>65.599998474121</ele>
        <time>2016-09-26T19:10:11.000Z</time>
      </trkpt>
      <trkpt lat="48.82865" lon="2.30594">
        <ele>65.199996948242</ele>
        <time>2016-09-26T19:11:08.000Z</time>
      </trkpt>
      <trkpt lat="48.82824" lon="2.30558">
        <ele>66.199996948242</ele>
        <time>2016-09-26T19:11:23.000Z</time>
      </trkpt>
      <trkpt lat="48.82794" lon="2.30529">
        <ele>67.400001525879</ele>
        <time>2016-09-26T19:11:33.000Z</time>
      </trkpt>
      <trkpt lat="48.82788" lon="2.30518">
        <ele>67.400001525879</ele>
        <time>2016-09-26T19:11:35.000Z</time>
      </trkpt>
      <trkpt lat="48.82789" lon="2.30504">
        <ele>67.400001525879</ele>
        <time>2016-09-26T19:11:37.000Z</time>
      </trkpt>
      <trkpt lat="48.82805" lon="2.30435">
        <ele>67</ele>
        <time>2016-09-26T19:11:45.000Z</time>
      </trkpt>
      <trkpt lat="48.82812" lon="2.30412">
        <ele>67.599998474121</ele>
        <time>2016-09-26T19:11:47.000Z</time>
      </trkpt>
      <trkpt lat="48.82821" lon="2.30356">
        <ele>68.400001525879</ele>
        <time>2016-09-26T19:11:51.000Z</time>
      </trkpt>
      <trkpt lat="48.82841" lon="2.30306">
        <ele>68.599998474121</ele>
        <time>2016-09-26T19:12:14.000Z</time>
      </trkpt>
      <trkpt lat="48.82848" lon="2.30321">
        <ele>68.800003051758</ele>
        <time>2016-09-26T19:12:26.000Z</time>
      </trkpt>
      <trkpt lat="48.82877" lon="2.30378">
        <ele>67.599998474121</ele>
        <time>2016-09-26T19:12:44.000Z</time>
      </trkpt>
      <trkpt lat="48.82912" lon="2.30426">
        <ele>66.400001525879</ele>
        <time>2016-09-26T19:12:59.000Z</time>
      </trkpt>
      <trkpt lat="48.82937" lon="2.30472">
        <ele>66.800003051758</ele>
        <time>2016-09-26T19:13:12.000Z</time>
      </trkpt>
      <trkpt lat="48.82973" lon="2.30519">
        <ele>65.400001525879</ele>
        <time>2016-09-26T19:13:20.000Z</time>
      </trkpt>
      <trkpt lat="48.83009" lon="2.30561">
        <ele>63.599998474121</ele>
        <time>2016-09-26T19:13:27.000Z</time>
      </trkpt>
      <trkpt lat="48.83036" lon="2.30598">
        <ele>63.200000762939</ele>
        <time>2016-09-26T19:13:33.000Z</time>
      </trkpt>
      <trkpt lat="48.83052" lon="2.30612">
        <ele>63.400001525879</ele>
        <time>2016-09-26T19:13:36.000Z</time>
      </trkpt>
      <trkpt lat="48.83068" lon="2.30624">
        <ele>63.599998474121</ele>
        <time>2016-09-26T19:13:39.000Z</time>
      </trkpt>
      <trkpt lat="48.83109" lon="2.30659">
        <ele>64</ele>
        <time>2016-09-26T19:13:48.000Z</time>
      </trkpt>
      <trkpt lat="48.83152" lon="2.30694">
        <ele>62.799999237061</ele>
        <time>2016-09-26T19:13:57.000Z</time>
      </trkpt>
      <trkpt lat="48.83169" lon="2.30708">
        <ele>62</ele>
        <time>2016-09-26T19:14:08.000Z</time>
      </trkpt>
      <trkpt lat="48.8314" lon="2.30689">
        <ele>62.799999237061</ele>
        <time>2016-09-26T19:14:21.000Z</time>
      </trkpt>
      <trkpt lat="48.83164" lon="2.30626">
        <ele>64</ele>
        <time>2016-09-26T19:14:34.000Z</time>
      </trkpt>
      <trkpt lat="48.83181" lon="2.30561">
        <ele>63.799999237061</ele>
        <time>2016-09-26T19:14:46.000Z</time>
      </trkpt>
      <trkpt lat="48.83199" lon="2.30494">
        <ele>61.599998474121</ele>
        <time>2016-09-26T19:15:03.000Z</time>
      </trkpt>
      <trkpt lat="48.83202" lon="2.30426">
        <ele>62.400001525879</ele>
        <time>2016-09-26T19:15:22.000Z</time>
      </trkpt>
      <trkpt lat="48.8321" lon="2.30357">
        <ele>63.200000762939</ele>
        <time>2016-09-26T19:15:41.000Z</time>
      </trkpt>
      <trkpt lat="48.83228" lon="2.30295">
        <ele>63.200000762939</ele>
        <time>2016-09-26T19:16:03.000Z</time>
      </trkpt>
      <trkpt lat="48.83251" lon="2.30234">
        <ele>61</ele>
        <time>2016-09-26T19:16:19.000Z</time>
      </trkpt>
      <trkpt lat="48.83261" lon="2.30203">
        <ele>59</ele>
        <time>2016-09-26T19:16:24.000Z</time>
      </trkpt>
      <trkpt lat="48.83277" lon="2.30133">
        <ele>56</ele>
        <time>2016-09-26T19:16:36.000Z</time>
      </trkpt>
      <trkpt lat="48.83275" lon="2.30074">
        <ele>56.400001525879</ele>
        <time>2016-09-26T19:17:19.000Z</time>
      </trkpt>
      <trkpt lat="48.83277" lon="2.3007">
        <ele>56.599998474121</ele>
        <time>2016-09-26T19:17:23.000Z</time>
      </trkpt>
      <trkpt lat="48.83278" lon="2.30053">
        <ele>57.200000762939</ele>
        <time>2016-09-26T19:19:21.000Z</time>
      </trkpt>
      <trkpt lat="48.83309" lon="2.29999">
        <ele>60.799999237061</ele>
        <time>2016-09-26T19:19:38.000Z</time>
      </trkpt>
      <trkpt lat="48.8334" lon="2.29947">
        <ele>61.400001525879</ele>
        <time>2016-09-26T19:19:52.000Z</time>
      </trkpt>
      <trkpt lat="48.8336" lon="2.29901">
        <ele>62</ele>
        <time>2016-09-26T19:20:04.000Z</time>
      </trkpt>
      <trkpt lat="48.83354" lon="2.29886">
        <ele>61.799999237061</ele>
        <time>2016-09-26T19:20:07.000Z</time>
      </trkpt>
      <trkpt lat="48.83318" lon="2.29841">
        <ele>59.799999237061</ele>
        <time>2016-09-26T19:20:20.000Z</time>
      </trkpt>
      <trkpt lat="48.83306" lon="2.29827">
        <ele>59.200000762939</ele>
        <time>2016-09-26T19:20:23.000Z</time>
      </trkpt>
      <trkpt lat="48.83284" lon="2.29803">
        <ele>59.400001525879</ele>
        <time>2016-09-26T19:20:29.000Z</time>
      </trkpt>
      <trkpt lat="48.83276" lon="2.29794">
        <ele>59.400001525879</ele>
        <time>2016-09-26T19:20:31.000Z</time>
      </trkpt>
      <trkpt lat="48.8327" lon="2.29784">
        <ele>59.599998474121</ele>
        <time>2016-09-26T19:20:33.000Z</time>
      </trkpt>
      <trkpt lat="48.83265" lon="2.29779">
        <ele>59.799999237061</ele>
        <time>2016-09-26T19:20:34.000Z</time>
      </trkpt>
      <trkpt lat="48.83256" lon="2.29772">
        <ele>60</ele>
        <time>2016-09-26T19:20:36.000Z</time>
      </trkpt>
      <trkpt lat="48.83245" lon="2.29763">
        <ele>60.400001525879</ele>
        <time>2016-09-26T19:20:38.000Z</time>
      </trkpt>
      <trkpt lat="48.83202" lon="2.29734">
        <ele>60.799999237061</ele>
        <time>2016-09-26T19:20:46.000Z</time>
      </trkpt>
      <trkpt lat="48.83166" lon="2.2971">
        <ele>61.799999237061</ele>
        <time>2016-09-26T19:20:53.000Z</time>
      </trkpt>
      <trkpt lat="48.83156" lon="2.29692">
        <ele>62.799999237061</ele>
        <time>2016-09-26T19:20:58.000Z</time>
      </trkpt>
      <trkpt lat="48.83157" lon="2.29685">
        <ele>63</ele>
        <time>2016-09-26T19:21:02.000Z</time>
      </trkpt>
      <trkpt lat="48.83176" lon="2.29619">
        <ele>64</ele>
        <time>2016-09-26T19:21:17.000Z</time>
      </trkpt>
      <trkpt lat="48.83185" lon="2.29592">
        <ele>63.400001525879</ele>
        <time>2016-09-26T19:21:55.000Z</time>
      </trkpt>
      <trkpt lat="48.83214" lon="2.29541">
        <ele>61</ele>
        <time>2016-09-26T19:22:09.000Z</time>
      </trkpt>
      <trkpt lat="48.83235" lon="2.29513">
        <ele>60.200000762939</ele>
        <time>2016-09-26T19:22:16.000Z</time>
      </trkpt>
      <trkpt lat="48.83272" lon="2.29467">
        <ele>61</ele>
        <time>2016-09-26T19:22:31.000Z</time>
      </trkpt>
      <trkpt lat="48.83307" lon="2.29417">
        <ele>60.799999237061</ele>
        <time>2016-09-26T19:22:50.000Z</time>
      </trkpt>
      <trkpt lat="48.83304" lon="2.29409">
        <ele>61.200000762939</ele>
        <time>2016-09-26T19:22:52.000Z</time>
      </trkpt>
      <trkpt lat="48.83281" lon="2.29384">
        <ele>62.799999237061</ele>
        <time>2016-09-26T19:22:59.000Z</time>
      </trkpt>
      <trkpt lat="48.8324" lon="2.29356">
        <ele>62.599998474121</ele>
        <time>2016-09-26T19:23:07.000Z</time>
      </trkpt>
      <trkpt lat="48.83219" lon="2.29324">
        <ele>62.200000762939</ele>
        <time>2016-09-26T19:23:15.000Z</time>
      </trkpt>
      <trkpt lat="48.83241" lon="2.29297">
        <ele>63.200000762939</ele>
        <time>2016-09-26T19:23:24.000Z</time>
      </trkpt>
      <trkpt lat="48.83275" lon="2.29249">
        <ele>60</ele>
        <time>2016-09-26T19:23:35.000Z</time>
      </trkpt>
      <trkpt lat="48.83286" lon="2.29225">
        <ele>59.400001525879</ele>
        <time>2016-09-26T19:23:42.000Z</time>
      </trkpt>
      <trkpt lat="48.83292" lon="2.29214">
        <ele>59</ele>
        <time>2016-09-26T19:24:28.000Z</time>
      </trkpt>
      <trkpt lat="48.83321" lon="2.2916">
        <ele>57</ele>
        <time>2016-09-26T19:24:51.000Z</time>
      </trkpt>
      <trkpt lat="48.83357" lon="2.29109">
        <ele>54.200000762939</ele>
        <time>2016-09-26T19:25:10.000Z</time>
      </trkpt>
      <trkpt lat="48.83388" lon="2.29087">
        <ele>52.400001525879</ele>
        <time>2016-09-26T19:25:18.000Z</time>
      </trkpt>
      <trkpt lat="48.83399" lon="2.29056">
        <ele>49.799999237061</ele>
        <time>2016-09-26T19:25:24.000Z</time>
      </trkpt>
      <trkpt lat="48.83403" lon="2.29051">
        <ele>49.200000762939</ele>
        <time>2016-09-26T19:25:27.000Z</time>
      </trkpt>
      <trkpt lat="48.83426" lon="2.29039">
        <ele>48.599998474121</ele>
        <time>2016-09-26T19:26:22.000Z</time>
      </trkpt>
      <trkpt lat="48.83461" lon="2.29085">
        <ele>49.599998474121</ele>
        <time>2016-09-26T19:26:38.000Z</time>
      </trkpt>
      <trkpt lat="48.83486" lon="2.29129">
        <ele>49.400001525879</ele>
        <time>2016-09-26T19:26:46.000Z</time>
      </trkpt>
      <trkpt lat="48.83501" lon="2.29147">
        <ele>49.200000762939</ele>
        <time>2016-09-26T19:26:49.000Z</time>
      </trkpt>
      <trkpt lat="48.83539" lon="2.29193">
        <ele>48.799999237061</ele>
        <time>2016-09-26T19:26:56.000Z</time>
      </trkpt>
      <trkpt lat="48.83573" lon="2.29246">
        <ele>48.200000762939</ele>
        <time>2016-09-26T19:27:04.000Z</time>
      </trkpt>
      <trkpt lat="48.83606" lon="2.29293">
        <ele>47</ele>
        <time>2016-09-26T19:27:14.000Z</time>
      </trkpt>
      <trkpt lat="48.8361" lon="2.2939">
        <ele>49.200000762939</ele>
        <time>2016-09-26T19:27:28.000Z</time>
      </trkpt>
      <trkpt lat="48.83638" lon="2.29447">
        <ele>50</ele>
        <time>2016-09-26T19:27:42.000Z</time>
      </trkpt>
      <trkpt lat="48.83666" lon="2.29494">
        <ele>50.200000762939</ele>
        <time>2016-09-26T19:27:50.000Z</time>
      </trkpt>
      <trkpt lat="48.83686" lon="2.29537">
        <ele>48.200000762939</ele>
        <time>2016-09-26T19:27:55.000Z</time>
      </trkpt>
      <trkpt lat="48.83706" lon="2.29572">
        <ele>45.599998474121</ele>
        <time>2016-09-26T19:28:00.000Z</time>
      </trkpt>
      <trkpt lat="48.83734" lon="2.29628">
        <ele>44.799999237061</ele>
        <time>2016-09-26T19:28:08.000Z</time>
      </trkpt>
      <trkpt lat="48.83752" lon="2.29668">
        <ele>44.400001525879</ele>
        <time>2016-09-26T19:28:13.000Z</time>
      </trkpt>
      <trkpt lat="48.83781" lon="2.29719">
        <ele>45.799999237061</ele>
        <time>2016-09-26T19:28:20.000Z</time>
      </trkpt>
      <trkpt lat="48.83811" lon="2.29771">
        <ele>47.799999237061</ele>
        <time>2016-09-26T19:28:27.000Z</time>
      </trkpt>
      <trkpt lat="48.83837" lon="2.29833">
        <ele>51</ele>
        <time>2016-09-26T19:28:35.000Z</time>
      </trkpt>
      <trkpt lat="48.8384" lon="2.29841">
        <ele>51.200000762939</ele>
        <time>2016-09-26T19:28:36.000Z</time>
      </trkpt>
      <trkpt lat="48.83846" lon="2.29855">
        <ele>51.200000762939</ele>
        <time>2016-09-26T19:28:38.000Z</time>
      </trkpt>
      <trkpt lat="48.83878" lon="2.29907">
        <ele>51.400001525879</ele>
        <time>2016-09-26T19:28:46.000Z</time>
      </trkpt>
      <trkpt lat="48.83885" lon="2.29923">
        <ele>51.799999237061</ele>
        <time>2016-09-26T19:28:48.000Z</time>
      </trkpt>
      <trkpt lat="48.83913" lon="2.29978">
        <ele>53.400001525879</ele>
        <time>2016-09-26T19:28:55.000Z</time>
      </trkpt>
      <trkpt lat="48.83937" lon="2.30038">
        <ele>54.400001525879</ele>
        <time>2016-09-26T19:29:01.000Z</time>
      </trkpt>
      <trkpt lat="48.8394" lon="2.30047">
        <ele>54.599998474121</ele>
        <time>2016-09-26T19:29:02.000Z</time>
      </trkpt>
      <trkpt lat="48.83961" lon="2.3011">
        <ele>54.200000762939</ele>
        <time>2016-09-26T19:29:09.000Z</time>
      </trkpt>
      <trkpt lat="48.83964" lon="2.30133">
        <ele>53.799999237061</ele>
        <time>2016-09-26T19:29:12.000Z</time>
      </trkpt>
      <trkpt lat="48.83989" lon="2.30194">
        <ele>52.599998474121</ele>
        <time>2016-09-26T19:29:24.000Z</time>
      </trkpt>
      <trkpt lat="48.83979" lon="2.30241">
        <ele>52.599998474121</ele>
        <time>2016-09-26T19:30:43.000Z</time>
      </trkpt>
      <trkpt lat="48.83984" lon="2.30237">
        <ele>52.400001525879</ele>
        <time>2016-09-26T19:30:50.000Z</time>
      </trkpt>
      <trkpt lat="48.8403" lon="2.30256">
        <ele>51.799999237061</ele>
        <time>2016-09-26T19:31:02.000Z</time>
      </trkpt>
      <trkpt lat="48.84035" lon="2.30257">
        <ele>51.599998474121</ele>
        <time>2016-09-26T19:31:03.000Z</time>
      </trkpt>
      <trkpt lat="48.84084" lon="2.30274">
        <ele>50.200000762939</ele>
        <time>2016-09-26T19:31:11.000Z</time>
      </trkpt>
      <trkpt lat="48.84133" lon="2.30285">
        <ele>48.200000762939</ele>
        <time>2016-09-26T19:31:19.000Z</time>
      </trkpt>
      <trkpt lat="48.84175" lon="2.30304">
        <ele>46.200000762939</ele>
        <time>2016-09-26T19:31:32.000Z</time>
      </trkpt>
      <trkpt lat="48.84192" lon="2.30318">
        <ele>45.400001525879</ele>
        <time>2016-09-26T19:31:47.000Z</time>
      </trkpt>
      <trkpt lat="48.84236" lon="2.30292">
        <ele>45.799999237061</ele>
        <time>2016-09-26T19:32:01.000Z</time>
      </trkpt>
      <trkpt lat="48.84281" lon="2.30262">
        <ele>45.599998474121</ele>
        <time>2016-09-26T19:32:16.000Z</time>
      </trkpt>
      <trkpt lat="48.84324" lon="2.30241">
        <ele>44.400001525879</ele>
        <time>2016-09-26T19:32:27.000Z</time>
      </trkpt>
      <trkpt lat="48.84371" lon="2.30222">
        <ele>43</ele>
        <time>2016-09-26T19:32:38.000Z</time>
      </trkpt>
      <trkpt lat="48.84419" lon="2.3021">
        <ele>44</ele>
        <time>2016-09-26T19:32:46.000Z</time>
      </trkpt>
      <trkpt lat="48.84467" lon="2.30193">
        <ele>42.599998474121</ele>
        <time>2016-09-26T19:32:54.000Z</time>
      </trkpt>
      <trkpt lat="48.84516" lon="2.3018">
        <ele>40.400001525879</ele>
        <time>2016-09-26T19:33:02.000Z</time>
      </trkpt>
      <trkpt lat="48.84559" lon="2.30161">
        <ele>40</ele>
        <time>2016-09-26T19:33:09.000Z</time>
      </trkpt>
      <trkpt lat="48.84605" lon="2.30138">
        <ele>41</ele>
        <time>2016-09-26T19:33:16.000Z</time>
      </trkpt>
      <trkpt lat="48.84653" lon="2.30123">
        <ele>43.799999237061</ele>
        <time>2016-09-26T19:33:24.000Z</time>
      </trkpt>
      <trkpt lat="48.84691" lon="2.30117">
        <ele>46.200000762939</ele>
        <time>2016-09-26T19:33:32.000Z</time>
      </trkpt>
      <trkpt lat="48.84736" lon="2.30132">
        <ele>43.200000762939</ele>
        <time>2016-09-26T19:34:22.000Z</time>
      </trkpt>
      <trkpt lat="48.84745" lon="2.30136">
        <ele>42.599998474121</ele>
        <time>2016-09-26T19:34:30.000Z</time>
      </trkpt>
      <trkpt lat="48.84759" lon="2.30147">
        <ele>41.400001525879</ele>
        <time>2016-09-26T19:34:44.000Z</time>
      </trkpt>
      <trkpt lat="48.848" lon="2.30151">
        <ele>41</ele>
        <time>2016-09-26T19:35:03.000Z</time>
      </trkpt>
      <trkpt lat="48.84823" lon="2.30087">
        <ele>43</ele>
        <time>2016-09-26T19:35:20.000Z</time>
      </trkpt>
      <trkpt lat="48.84849" lon="2.30023">
        <ele>42.599998474121</ele>
        <time>2016-09-26T19:35:31.000Z</time>
      </trkpt>
      <trkpt lat="48.84851" lon="2.30018">
        <ele>42.400001525879</ele>
        <time>2016-09-26T19:35:32.000Z</time>
      </trkpt>
      <trkpt lat="48.8488" lon="2.29956">
        <ele>43.400001525879</ele>
        <time>2016-09-26T19:35:42.000Z</time>
      </trkpt>
      <trkpt lat="48.84894" lon="2.29887">
        <ele>43.799999237061</ele>
        <time>2016-09-26T19:35:50.000Z</time>
      </trkpt>
      <trkpt lat="48.849" lon="2.29863">
        <ele>43.799999237061</ele>
        <time>2016-09-26T19:35:53.000Z</time>
      </trkpt>
      <trkpt lat="48.84921" lon="2.29799">
        <ele>43.400001525879</ele>
        <time>2016-09-26T19:36:01.000Z</time>
      </trkpt>
      <trkpt lat="48.84944" lon="2.29729">
        <ele>44.799999237061</ele>
        <time>2016-09-26T19:36:09.000Z</time>
      </trkpt>
      <trkpt lat="48.84964" lon="2.29665">
        <ele>44</ele>
        <time>2016-09-26T19:36:16.000Z</time>
      </trkpt>
      <trkpt lat="48.84983" lon="2.29602">
        <ele>41.799999237061</ele>
        <time>2016-09-26T19:36:23.000Z</time>
      </trkpt>
      <trkpt lat="48.85003" lon="2.2954">
        <ele>41</ele>
        <time>2016-09-26T19:36:31.000Z</time>
      </trkpt>
      <trkpt lat="48.85022" lon="2.29471">
        <ele>41</ele>
        <time>2016-09-26T19:36:40.000Z</time>
      </trkpt>
      <trkpt lat="48.85037" lon="2.29426">
        <ele>41</ele>
        <time>2016-09-26T19:36:45.000Z</time>
      </trkpt>
      <trkpt lat="48.85058" lon="2.29364">
        <ele>41.200000762939</ele>
        <time>2016-09-26T19:36:52.000Z</time>
      </trkpt>
      <trkpt lat="48.85081" lon="2.29298">
        <ele>40.799999237061</ele>
        <time>2016-09-26T19:37:04.000Z</time>
      </trkpt>
      <trkpt lat="48.85107" lon="2.29242">
        <ele>39</ele>
        <time>2016-09-26T19:37:21.000Z</time>
      </trkpt>
      <trkpt lat="48.8512" lon="2.29227">
        <ele>39.599998474121</ele>
        <time>2016-09-26T19:37:29.000Z</time>
      </trkpt>
      <trkpt lat="48.85136" lon="2.29208">
        <ele>40.400001525879</ele>
        <time>2016-09-26T19:37:35.000Z</time>
      </trkpt>
      <trkpt lat="48.85148" lon="2.29196">
        <ele>40.799999237061</ele>
        <time>2016-09-26T19:37:38.000Z</time>
      </trkpt>
      <trkpt lat="48.85183" lon="2.29148">
        <ele>40.599998474121</ele>
        <time>2016-09-26T19:37:46.000Z</time>
      </trkpt>
      <trkpt lat="48.85218" lon="2.29094">
        <ele>39.799999237061</ele>
        <time>2016-09-26T19:37:54.000Z</time>
      </trkpt>
      <trkpt lat="48.85256" lon="2.29055">
        <ele>40.599998474121</ele>
        <time>2016-09-26T19:38:03.000Z</time>
      </trkpt>
      <trkpt lat="48.85295" lon="2.2902">
        <ele>40.400001525879</ele>
        <time>2016-09-26T19:38:12.000Z</time>
      </trkpt>
      <trkpt lat="48.85337" lon="2.28983">
        <ele>40.799999237061</ele>
        <time>2016-09-26T19:38:20.000Z</time>
      </trkpt>
      <trkpt lat="48.85367" lon="2.28956">
        <ele>42</ele>
        <time>2016-09-26T19:38:29.000Z</time>
      </trkpt>
      <trkpt lat="48.85408" lon="2.28915">
        <ele>43.599998474121</ele>
        <time>2016-09-26T19:38:40.000Z</time>
      </trkpt>
      <trkpt lat="48.85451" lon="2.28895">
        <ele>42.599998474121</ele>
        <time>2016-09-26T19:38:52.000Z</time>
      </trkpt>
      <trkpt lat="48.85463" lon="2.28893">
        <ele>41.799999237061</ele>
        <time>2016-09-26T19:40:33.000Z</time>
      </trkpt>
      <trkpt lat="48.85496" lon="2.28844">
        <ele>38.200000762939</ele>
        <time>2016-09-26T19:40:48.000Z</time>
      </trkpt>
      <trkpt lat="48.85523" lon="2.28815">
        <ele>35.400001525879</ele>
        <time>2016-09-26T19:40:56.000Z</time>
      </trkpt>
      <trkpt lat="48.85536" lon="2.28798">
        <ele>34.400001525879</ele>
        <time>2016-09-26T19:40:59.000Z</time>
      </trkpt>
      <trkpt lat="48.8558" lon="2.28755">
        <ele>33</ele>
        <time>2016-09-26T19:41:06.000Z</time>
      </trkpt>
      <trkpt lat="48.8562" lon="2.28718">
        <ele>32.400001525879</ele>
        <time>2016-09-26T19:41:12.000Z</time>
      </trkpt>
      <trkpt lat="48.85659" lon="2.28681">
        <ele>36</ele>
        <time>2016-09-26T19:41:21.000Z</time>
      </trkpt>
      <trkpt lat="48.85679" lon="2.28648">
        <ele>42</ele>
        <time>2016-09-26T19:42:16.000Z</time>
      </trkpt>
      <trkpt lat="48.85701" lon="2.28647">
        <ele>45</ele>
        <time>2016-09-26T19:43:11.000Z</time>
      </trkpt>
      <trkpt lat="48.85739" lon="2.28686">
        <ele>47.400001525879</ele>
        <time>2016-09-26T19:43:28.000Z</time>
      </trkpt>
      <trkpt lat="48.85749" lon="2.28695">
        <ele>47.799999237061</ele>
        <time>2016-09-26T19:43:35.000Z</time>
      </trkpt>
      <trkpt lat="48.85779" lon="2.28747">
        <ele>46.200000762939</ele>
        <time>2016-09-26T19:43:49.000Z</time>
      </trkpt>
      <trkpt lat="48.85786" lon="2.28756">
        <ele>45.799999237061</ele>
        <time>2016-09-26T19:43:51.000Z</time>
      </trkpt>
      <trkpt lat="48.85811" lon="2.28786">
        <ele>44.400001525879</ele>
        <time>2016-09-26T19:44:11.000Z</time>
      </trkpt>
      <trkpt lat="48.85846" lon="2.28734">
        <ele>50.799999237061</ele>
        <time>2016-09-26T19:44:40.000Z</time>
      </trkpt>
      <trkpt lat="48.85847" lon="2.28733">
        <ele>51</ele>
        <time>2016-09-26T19:44:41.000Z</time>
      </trkpt>
      <trkpt lat="48.85864" lon="2.2871">
        <ele>55</ele>
        <time>2016-09-26T19:45:06.000Z</time>
      </trkpt>
      <trkpt lat="48.85873" lon="2.28697">
        <ele>57.200000762939</ele>
        <time>2016-09-26T19:45:19.000Z</time>
      </trkpt>
      <trkpt lat="48.85877" lon="2.28692">
        <ele>58</ele>
        <time>2016-09-26T19:45:25.000Z</time>
      </trkpt>
      <trkpt lat="48.85878" lon="2.28686">
        <ele>58.799999237061</ele>
        <time>2016-09-26T19:45:32.000Z</time>
      </trkpt>
      <trkpt lat="48.85909" lon="2.28685">
        <ele>60.799999237061</ele>
        <time>2016-09-26T19:47:19.000Z</time>
      </trkpt>
      <trkpt lat="48.85914" lon="2.28689">
        <ele>60.599998474121</ele>
        <time>2016-09-26T19:47:32.000Z</time>
      </trkpt>
      <trkpt lat="48.85951" lon="2.28734">
        <ele>57.799999237061</ele>
        <time>2016-09-26T19:47:54.000Z</time>
      </trkpt>
      <trkpt lat="48.85983" lon="2.28768">
        <ele>56</ele>
        <time>2016-09-26T19:48:32.000Z</time>
      </trkpt>
      <trkpt lat="48.85987" lon="2.28775">
        <ele>55.599998474121</ele>
        <time>2016-09-26T19:48:44.000Z</time>
      </trkpt>
      <trkpt lat="48.85994" lon="2.28779">
        <ele>55.599998474121</ele>
        <time>2016-09-26T19:49:05.000Z</time>
      </trkpt>
      <trkpt lat="48.85999" lon="2.28769">
        <ele>56.599998474121</ele>
        <time>2016-09-26T19:49:18.000Z</time>
      </trkpt>
      <trkpt lat="48.86003" lon="2.28752">
        <ele>57.799999237061</ele>
        <time>2016-09-26T19:49:41.000Z</time>
      </trkpt>
      <trkpt lat="48.86023" lon="2.28691">
        <ele>65.800003051758</ele>
        <time>2016-09-26T19:50:14.000Z</time>
      </trkpt>
      <trkpt lat="48.86041" lon="2.28626">
        <ele>71.199996948242</ele>
        <time>2016-09-26T19:50:37.000Z</time>
      </trkpt>
      <trkpt lat="48.86049" lon="2.28599">
        <ele>72.800003051758</ele>
        <time>2016-09-26T19:52:35.000Z</time>
      </trkpt>
      <trkpt lat="48.86047" lon="2.28597">
        <ele>73</ele>
        <time>2016-09-26T19:52:40.000Z</time>
      </trkpt>
      <trkpt lat="48.86078" lon="2.28601">
        <ele>74.199996948242</ele>
        <time>2016-09-26T19:52:54.000Z</time>
      </trkpt>
      <trkpt lat="48.861" lon="2.28616">
        <ele>74</ele>
        <time>2016-09-26T19:53:07.000Z</time>
      </trkpt>
      <trkpt lat="48.86141" lon="2.28636">
        <ele>73</ele>
        <time>2016-09-26T19:53:25.000Z</time>
      </trkpt>
      <trkpt lat="48.86144" lon="2.28632">
        <ele>73.199996948242</ele>
        <time>2016-09-26T19:53:28.000Z</time>
      </trkpt>
      <trkpt lat="48.86145" lon="2.28629">
        <ele>73.400001525879</ele>
        <time>2016-09-26T19:53:30.000Z</time>
      </trkpt>
      <trkpt lat="48.86113" lon="2.28579">
        <ele>76.599998474121</ele>
        <time>2016-09-26T19:53:51.000Z</time>
      </trkpt>
      <trkpt lat="48.86078" lon="2.28528">
        <ele>75.599998474121</ele>
        <time>2016-09-26T19:54:03.000Z</time>
      </trkpt>
      <trkpt lat="48.86047" lon="2.28478">
        <ele>73.800003051758</ele>
        <time>2016-09-26T19:54:14.000Z</time>
      </trkpt>
      <trkpt lat="48.86026" lon="2.28454">
        <ele>72.199996948242</ele>
        <time>2016-09-26T19:54:20.000Z</time>
      </trkpt>
      <trkpt lat="48.86006" lon="2.28448">
        <ele>71.599998474121</ele>
        <time>2016-09-26T19:54:24.000Z</time>
      </trkpt>
      <trkpt lat="48.85959" lon="2.28456">
        <ele>71</ele>
        <time>2016-09-26T19:54:33.000Z</time>
      </trkpt>
      <trkpt lat="48.85914" lon="2.28465">
        <ele>69.599998474121</ele>
        <time>2016-09-26T19:54:43.000Z</time>
      </trkpt>
      <trkpt lat="48.85869" lon="2.28444">
        <ele>67</ele>
        <time>2016-09-26T19:54:55.000Z</time>
      </trkpt>
      <trkpt lat="48.85868" lon="2.28439">
        <ele>67</ele>
        <time>2016-09-26T19:54:56.000Z</time>
      </trkpt>
      <trkpt lat="48.85895" lon="2.2838">
        <ele>70</ele>
        <time>2016-09-26T19:55:12.000Z</time>
      </trkpt>
      <trkpt lat="48.85924" lon="2.28321">
        <ele>69.199996948242</ele>
        <time>2016-09-26T19:55:24.000Z</time>
      </trkpt>
      <trkpt lat="48.85926" lon="2.2831">
        <ele>69.199996948242</ele>
        <time>2016-09-26T19:55:26.000Z</time>
      </trkpt>
      <trkpt lat="48.8596" lon="2.28258">
        <ele>71.800003051758</ele>
        <time>2016-09-26T19:55:38.000Z</time>
      </trkpt>
      <trkpt lat="48.8599" lon="2.28204">
        <ele>71.800003051758</ele>
        <time>2016-09-26T19:55:50.000Z</time>
      </trkpt>
      <trkpt lat="48.86016" lon="2.28147">
        <ele>73.800003051758</ele>
        <time>2016-09-26T19:56:07.000Z</time>
      </trkpt>
      <trkpt lat="48.86022" lon="2.28114">
        <ele>74</ele>
        <time>2016-09-26T19:57:00.000Z</time>
      </trkpt>
      <trkpt lat="48.86038" lon="2.28085">
        <ele>74</ele>
        <time>2016-09-26T19:57:12.000Z</time>
      </trkpt>
      <trkpt lat="48.86069" lon="2.28029">
        <ele>73.800003051758</ele>
        <time>2016-09-26T19:57:25.000Z</time>
      </trkpt>
      <trkpt lat="48.86105" lon="2.27982">
        <ele>72.800003051758</ele>
        <time>2016-09-26T19:57:37.000Z</time>
      </trkpt>
      <trkpt lat="48.86138" lon="2.27934">
        <ele>71.400001525879</ele>
        <time>2016-09-26T19:57:49.000Z</time>
      </trkpt>
      <trkpt lat="48.86168" lon="2.2788">
        <ele>70.199996948242</ele>
        <time>2016-09-26T19:58:00.000Z</time>
      </trkpt>
      <trkpt lat="48.86175" lon="2.27871">
        <ele>69.599998474121</ele>
        <time>2016-09-26T19:58:01.000Z</time>
      </trkpt>
      <trkpt lat="48.86204" lon="2.27826">
        <ele>67.400001525879</ele>
        <time>2016-09-26T19:58:12.000Z</time>
      </trkpt>
      <trkpt lat="48.86214" lon="2.27813">
        <ele>66.400001525879</ele>
        <time>2016-09-26T19:58:15.000Z</time>
      </trkpt>
      <trkpt lat="48.86222" lon="2.2779">
        <ele>65</ele>
        <time>2016-09-26T19:58:19.000Z</time>
      </trkpt>
      <trkpt lat="48.86229" lon="2.27774">
        <ele>64.400001525879</ele>
        <time>2016-09-26T19:58:22.000Z</time>
      </trkpt>
      <trkpt lat="48.86256" lon="2.27712">
        <ele>64.599998474121</ele>
        <time>2016-09-26T19:58:32.000Z</time>
      </trkpt>
      <trkpt lat="48.86289" lon="2.27657">
        <ele>64.599998474121</ele>
        <time>2016-09-26T19:58:45.000Z</time>
      </trkpt>
      <trkpt lat="48.86302" lon="2.27588">
        <ele>65</ele>
        <time>2016-09-26T19:58:56.000Z</time>
      </trkpt>
      <trkpt lat="48.86316" lon="2.27547">
        <ele>66.800003051758</ele>
        <time>2016-09-26T19:59:03.000Z</time>
      </trkpt>
      <trkpt lat="48.86324" lon="2.27521">
        <ele>68.199996948242</ele>
        <time>2016-09-26T19:59:07.000Z</time>
      </trkpt>
      <trkpt lat="48.86342" lon="2.27456">
        <ele>70.599998474121</ele>
        <time>2016-09-26T19:59:18.000Z</time>
      </trkpt>
      <trkpt lat="48.86361" lon="2.27385">
        <ele>67.800003051758</ele>
        <time>2016-09-26T19:59:29.000Z</time>
      </trkpt>
      <trkpt lat="48.86362" lon="2.27378">
        <ele>67.199996948242</ele>
        <time>2016-09-26T19:59:30.000Z</time>
      </trkpt>
      <trkpt lat="48.86375" lon="2.27319">
        <ele>63.599998474121</ele>
        <time>2016-09-26T19:59:39.000Z</time>
      </trkpt>
      <trkpt lat="48.86387" lon="2.27246">
        <ele>61.200000762939</ele>
        <time>2016-09-26T19:59:49.000Z</time>
      </trkpt>
      <trkpt lat="48.86404" lon="2.27224">
        <ele>62.200000762939</ele>
        <time>2016-09-26T19:59:58.000Z</time>
      </trkpt>
      <trkpt lat="48.86449" lon="2.27235">
        <ele>60.799999237061</ele>
        <time>2016-09-26T20:00:16.000Z</time>
      </trkpt>
      <trkpt lat="48.86496" lon="2.27229">
        <ele>63.400001525879</ele>
        <time>2016-09-26T20:00:28.000Z</time>
      </trkpt>
      <trkpt lat="48.86504" lon="2.27227">
        <ele>63.799999237061</ele>
        <time>2016-09-26T20:00:30.000Z</time>
      </trkpt>
      <trkpt lat="48.86553" lon="2.27223">
        <ele>63.400001525879</ele>
        <time>2016-09-26T20:00:40.000Z</time>
      </trkpt>
      <trkpt lat="48.86582" lon="2.27226">
        <ele>63.599998474121</ele>
        <time>2016-09-26T20:00:45.000Z</time>
      </trkpt>
      <trkpt lat="48.86614" lon="2.2723">
        <ele>64.599998474121</ele>
        <time>2016-09-26T20:00:51.000Z</time>
      </trkpt>
      <trkpt lat="48.8666" lon="2.27254">
        <ele>64</ele>
        <time>2016-09-26T20:01:03.000Z</time>
      </trkpt>
      <trkpt lat="48.86665" lon="2.27256">
        <ele>63.799999237061</ele>
        <time>2016-09-26T20:01:04.000Z</time>
      </trkpt>
      <trkpt lat="48.86712" lon="2.27281">
        <ele>63</ele>
        <time>2016-09-26T20:01:12.000Z</time>
      </trkpt>
      <trkpt lat="48.86763" lon="2.2731">
        <ele>61</ele>
        <time>2016-09-26T20:01:18.000Z</time>
      </trkpt>
      <trkpt lat="48.8681" lon="2.27347">
        <ele>58.799999237061</ele>
        <time>2016-09-26T20:01:24.000Z</time>
      </trkpt>
      <trkpt lat="48.86848" lon="2.27385">
        <ele>56.400001525879</ele>
        <time>2016-09-26T20:01:33.000Z</time>
      </trkpt>
      <trkpt lat="48.86889" lon="2.27416">
        <ele>54.599998474121</ele>
        <time>2016-09-26T20:01:52.000Z</time>
      </trkpt>
      <trkpt lat="48.86929" lon="2.27447">
        <ele>54.599998474121</ele>
        <time>2016-09-26T20:02:03.000Z</time>
      </trkpt>
      <trkpt lat="48.8697" lon="2.27478">
        <ele>56.200000762939</ele>
        <time>2016-09-26T20:02:12.000Z</time>
      </trkpt>
      <trkpt lat="48.87012" lon="2.2751">
        <ele>58.599998474121</ele>
        <time>2016-09-26T20:02:21.000Z</time>
      </trkpt>
      <trkpt lat="48.87052" lon="2.27551">
        <ele>59.200000762939</ele>
        <time>2016-09-26T20:02:31.000Z</time>
      </trkpt>
      <trkpt lat="48.87095" lon="2.27588">
        <ele>58.799999237061</ele>
        <time>2016-09-26T20:02:42.000Z</time>
      </trkpt>
      <trkpt lat="48.87136" lon="2.27619">
        <ele>53.400001525879</ele>
        <time>2016-09-26T20:02:58.000Z</time>
      </trkpt>
      <trkpt lat="48.87135" lon="2.27627">
        <ele>53.799999237061</ele>
        <time>2016-09-26T20:03:46.000Z</time>
      </trkpt>
      <trkpt lat="48.87138" lon="2.27697">
        <ele>55.200000762939</ele>
        <time>2016-09-26T20:04:10.000Z</time>
      </trkpt>
      <trkpt lat="48.87145" lon="2.27766">
        <ele>54.400001525879</ele>
        <time>2016-09-26T20:04:30.000Z</time>
      </trkpt>
      <trkpt lat="48.87152" lon="2.27834">
        <ele>54.200000762939</ele>
        <time>2016-09-26T20:04:42.000Z</time>
      </trkpt>
      <trkpt lat="48.87159" lon="2.27907">
        <ele>52.799999237061</ele>
        <time>2016-09-26T20:04:51.000Z</time>
      </trkpt>
      <trkpt lat="48.87171" lon="2.27979">
        <ele>55.200000762939</ele>
        <time>2016-09-26T20:04:59.000Z</time>
      </trkpt>
      <trkpt lat="48.87183" lon="2.28048">
        <ele>56</ele>
        <time>2016-09-26T20:05:07.000Z</time>
      </trkpt>
      <trkpt lat="48.87187" lon="2.28083">
        <ele>56.200000762939</ele>
        <time>2016-09-26T20:05:11.000Z</time>
      </trkpt>
      <trkpt lat="48.87197" lon="2.28158">
        <ele>58.400001525879</ele>
        <time>2016-09-26T20:05:20.000Z</time>
      </trkpt>
      <trkpt lat="48.87199" lon="2.28183">
        <ele>59</ele>
        <time>2016-09-26T20:05:23.000Z</time>
      </trkpt>
      <trkpt lat="48.87205" lon="2.28252">
        <ele>59.599998474121</ele>
        <time>2016-09-26T20:05:31.000Z</time>
      </trkpt>
      <trkpt lat="48.87211" lon="2.28303">
        <ele>59.400001525879</ele>
        <time>2016-09-26T20:05:37.000Z</time>
      </trkpt>
      <trkpt lat="48.87216" lon="2.28335">
        <ele>59.400001525879</ele>
        <time>2016-09-26T20:05:41.000Z</time>
      </trkpt>
      <trkpt lat="48.87221" lon="2.28408">
        <ele>59.200000762939</ele>
        <time>2016-09-26T20:05:51.000Z</time>
      </trkpt>
      <trkpt lat="48.87227" lon="2.28458">
        <ele>59.599998474121</ele>
        <time>2016-09-26T20:06:35.000Z</time>
      </trkpt>
      <trkpt lat="48.87231" lon="2.28488">
        <ele>58.200000762939</ele>
        <time>2016-09-26T20:07:44.000Z</time>
      </trkpt>
      <trkpt lat="48.87249" lon="2.28508">
        <ele>56.200000762939</ele>
        <time>2016-09-26T20:07:52.000Z</time>
      </trkpt>
      <trkpt lat="48.87289" lon="2.2854">
        <ele>55.799999237061</ele>
        <time>2016-09-26T20:08:03.000Z</time>
      </trkpt>
      <trkpt lat="48.873" lon="2.28893">
        <ele>64.800003051758</ele>
        <time>2016-09-26T20:11:44.000Z</time>
      </trkpt>
      <trkpt lat="48.87285" lon="2.28911">
        <ele>66.199996948242</ele>
        <time>2016-09-26T20:12:31.000Z</time>
      </trkpt>
      <trkpt lat="48.87272" lon="2.28916">
        <ele>67</ele>
        <time>2016-09-26T20:12:53.000Z</time>
      </trkpt>
      <trkpt lat="48.87271" lon="2.28922">
        <ele>66.800003051758</ele>
        <time>2016-09-26T20:12:56.000Z</time>
      </trkpt>
      <trkpt lat="48.87277" lon="2.2899">
        <ele>65</ele>
        <time>2016-09-26T20:13:12.000Z</time>
      </trkpt>
      <trkpt lat="48.87286" lon="2.29061">
        <ele>68.800003051758</ele>
        <time>2016-09-26T20:13:30.000Z</time>
      </trkpt>
      <trkpt lat="48.87298" lon="2.29129">
        <ele>70.800003051758</ele>
        <time>2016-09-26T20:13:47.000Z</time>
      </trkpt>
      <trkpt lat="48.87322" lon="2.29186">
        <ele>70.599998474121</ele>
        <time>2016-09-26T20:14:04.000Z</time>
      </trkpt>
      <trkpt lat="48.87341" lon="2.29247">
        <ele>68.199996948242</ele>
        <time>2016-09-26T20:14:22.000Z</time>
      </trkpt>
      <trkpt lat="48.87341" lon="2.29249">
        <ele>68.199996948242</ele>
        <time>2016-09-26T20:14:23.000Z</time>
      </trkpt>
      <trkpt lat="48.87343" lon="2.2927">
        <ele>67.599998474121</ele>
        <time>2016-09-26T20:14:46.000Z</time>
      </trkpt>
      <trkpt lat="48.87306" lon="2.29292">
        <ele>69.400001525879</ele>
        <time>2016-09-26T20:15:07.000Z</time>
      </trkpt>
      <trkpt lat="48.87299" lon="2.29301">
        <ele>68.800003051758</ele>
        <time>2016-09-26T20:15:11.000Z</time>
      </trkpt>
      <trkpt lat="48.87272" lon="2.29359">
        <ele>66.400001525879</ele>
        <time>2016-09-26T20:15:27.000Z</time>
      </trkpt>
      <trkpt lat="48.87249" lon="2.29419">
        <ele>65.199996948242</ele>
        <time>2016-09-26T20:15:40.000Z</time>
      </trkpt>
      <trkpt lat="48.87234" lon="2.29485">
        <ele>64.400001525879</ele>
        <time>2016-09-26T20:15:50.000Z</time>
      </trkpt>
      <trkpt lat="48.87234" lon="2.29492">
        <ele>64.400001525879</ele>
        <time>2016-09-26T20:15:51.000Z</time>
      </trkpt>
      <trkpt lat="48.87237" lon="2.29537">
        <ele>63.400001525879</ele>
        <time>2016-09-26T20:15:58.000Z</time>
      </trkpt>
      <trkpt lat="48.87249" lon="2.29602">
        <ele>63.599998474121</ele>
        <time>2016-09-26T20:16:13.000Z</time>
      </trkpt>
      <trkpt lat="48.87249" lon="2.29608">
        <ele>63.799999237061</ele>
        <time>2016-09-26T20:16:47.000Z</time>
      </trkpt>
      <trkpt lat="48.87276" lon="2.29662">
        <ele>64.800003051758</ele>
        <time>2016-09-26T20:17:04.000Z</time>
      </trkpt>
      <trkpt lat="48.87292" lon="2.29708">
        <ele>66</ele>
        <time>2016-09-26T20:17:43.000Z</time>
      </trkpt>
      <trkpt lat="48.87277" lon="2.29777">
        <ele>69</ele>
        <time>2016-09-26T20:18:06.000Z</time>
      </trkpt>
      <trkpt lat="48.87261" lon="2.29841">
        <ele>67</ele>
        <time>2016-09-26T20:18:23.000Z</time>
      </trkpt>
      <trkpt lat="48.87264" lon="2.29887">
        <ele>64.599998474121</ele>
        <time>2016-09-26T20:18:30.000Z</time>
      </trkpt>
      <trkpt lat="48.87246" lon="2.29951">
        <ele>63.200000762939</ele>
        <time>2016-09-26T20:18:41.000Z</time>
      </trkpt>
      <trkpt lat="48.87217" lon="2.3001">
        <ele>61.799999237061</ele>
        <time>2016-09-26T20:18:50.000Z</time>
      </trkpt>
      <trkpt lat="48.87146" lon="2.30234">
        <ele>53.799999237061</ele>
        <time>2016-09-26T20:19:12.000Z</time>
      </trkpt>
      <trkpt lat="48.87123" lon="2.30243">
        <ele>53.400001525879</ele>
        <time>2016-09-26T20:19:42.000Z</time>
      </trkpt>
      <trkpt lat="48.87109" lon="2.3031">
        <ele>54.599998474121</ele>
        <time>2016-09-26T20:20:01.000Z</time>
      </trkpt>
      <trkpt lat="48.87099" lon="2.30377">
        <ele>55</ele>
        <time>2016-09-26T20:20:17.000Z</time>
      </trkpt>
      <trkpt lat="48.87088" lon="2.30445">
        <ele>54</ele>
        <time>2016-09-26T20:20:27.000Z</time>
      </trkpt>
      <trkpt lat="48.8708" lon="2.30473">
        <ele>53.200000762939</ele>
        <time>2016-09-26T20:20:31.000Z</time>
      </trkpt>
      <trkpt lat="48.87074" lon="2.30493">
        <ele>51.799999237061</ele>
        <time>2016-09-26T20:20:34.000Z</time>
      </trkpt>
      <trkpt lat="48.87043" lon="2.30549">
        <ele>49.400001525879</ele>
        <time>2016-09-26T20:20:49.000Z</time>
      </trkpt>
      <trkpt lat="48.8702" lon="2.30609">
        <ele>48.599998474121</ele>
        <time>2016-09-26T20:21:01.000Z</time>
      </trkpt>
      <trkpt lat="48.86994" lon="2.30667">
        <ele>50.599998474121</ele>
        <time>2016-09-26T20:21:17.000Z</time>
      </trkpt>
      <trkpt lat="48.86985" lon="2.30706">
        <ele>50</ele>
        <time>2016-09-26T20:21:25.000Z</time>
      </trkpt>
      <trkpt lat="48.86977" lon="2.3074">
        <ele>46.599998474121</ele>
        <time>2016-09-26T20:21:30.000Z</time>
      </trkpt>
      <trkpt lat="48.86968" lon="2.30802">
        <ele>43.400001525879</ele>
        <time>2016-09-26T20:21:39.000Z</time>
      </trkpt>
      <trkpt lat="48.86961" lon="2.30822">
        <ele>43.200000762939</ele>
        <time>2016-09-26T20:21:42.000Z</time>
      </trkpt>
      <trkpt lat="48.86939" lon="2.3087">
        <ele>43</ele>
        <time>2016-09-26T20:21:57.000Z</time>
      </trkpt>
      <trkpt lat="48.86914" lon="2.30869">
        <ele>43.400001525879</ele>
        <time>2016-09-26T20:24:31.000Z</time>
      </trkpt>
      <trkpt lat="48.86882" lon="2.30918">
        <ele>41.599998474121</ele>
        <time>2016-09-26T20:24:54.000Z</time>
      </trkpt>
      <trkpt lat="48.86844" lon="2.30957">
        <ele>40.200000762939</ele>
        <time>2016-09-26T20:25:13.000Z</time>
      </trkpt>
      <trkpt lat="48.86831" lon="2.30998">
        <ele>38.200000762939</ele>
        <time>2016-09-26T20:25:27.000Z</time>
      </trkpt>
      <trkpt lat="48.86783" lon="2.3101">
        <ele>38.400001525879</ele>
        <time>2016-09-26T20:25:42.000Z</time>
      </trkpt>
      <trkpt lat="48.86738" lon="2.31009">
        <ele>40</ele>
        <time>2016-09-26T20:25:53.000Z</time>
      </trkpt>
      <trkpt lat="48.86733" lon="2.31009">
        <ele>40.200000762939</ele>
        <time>2016-09-26T20:25:54.000Z</time>
      </trkpt>
      <trkpt lat="48.86714" lon="2.31013">
        <ele>40.799999237061</ele>
        <time>2016-09-26T20:25:58.000Z</time>
      </trkpt>
      <trkpt lat="48.86669" lon="2.31018">
        <ele>42.799999237061</ele>
        <time>2016-09-26T20:26:07.000Z</time>
      </trkpt>
      <trkpt lat="48.86623" lon="2.31026">
        <ele>43.400001525879</ele>
        <time>2016-09-26T20:26:14.000Z</time>
      </trkpt>
      <trkpt lat="48.86584" lon="2.31031">
        <ele>42.400001525879</ele>
        <time>2016-09-26T20:26:20.000Z</time>
      </trkpt>
      <trkpt lat="48.86536" lon="2.31024">
        <ele>40.400001525879</ele>
        <time>2016-09-26T20:26:27.000Z</time>
      </trkpt>
      <trkpt lat="48.86519" lon="2.31025">
        <ele>38.799999237061</ele>
        <time>2016-09-26T20:26:30.000Z</time>
      </trkpt>
      <trkpt lat="48.86478" lon="2.3105">
        <ele>32.200000762939</ele>
        <time>2016-09-26T20:26:44.000Z</time>
      </trkpt>
      <trkpt lat="48.86468" lon="2.31049">
        <ele>31.200000762939</ele>
        <time>2016-09-26T20:27:18.000Z</time>
      </trkpt>
      <trkpt lat="48.86453" lon="2.31106">
        <ele>28.60000038147</ele>
        <time>2016-09-26T20:27:36.000Z</time>
      </trkpt>
      <trkpt lat="48.86453" lon="2.31135">
        <ele>28.60000038147</ele>
        <time>2016-09-26T20:27:41.000Z</time>
      </trkpt>
      <trkpt lat="48.86455" lon="2.31148">
        <ele>29</ele>
        <time>2016-09-26T20:27:43.000Z</time>
      </trkpt>
      <trkpt lat="48.86458" lon="2.31218">
        <ele>33.799999237061</ele>
        <time>2016-09-26T20:27:52.000Z</time>
      </trkpt>
      <trkpt lat="48.86458" lon="2.31255">
        <ele>36.599998474121</ele>
        <time>2016-09-26T20:27:56.000Z</time>
      </trkpt>
      <trkpt lat="48.86461" lon="2.31303">
        <ele>35.799999237061</ele>
        <time>2016-09-26T20:28:01.000Z</time>
      </trkpt>
      <trkpt lat="48.8646" lon="2.31328">
        <ele>34.799999237061</ele>
        <time>2016-09-26T20:28:05.000Z</time>
      </trkpt>
      <trkpt lat="48.86461" lon="2.31353">
        <ele>33.200000762939</ele>
        <time>2016-09-26T20:28:11.000Z</time>
      </trkpt>
      <trkpt lat="48.86459" lon="2.31362">
        <ele>33</ele>
        <time>2016-09-26T20:28:37.000Z</time>
      </trkpt>
      <trkpt lat="48.86466" lon="2.31403">
        <ele>32.400001525879</ele>
        <time>2016-09-26T20:28:47.000Z</time>
      </trkpt>
      <trkpt lat="48.86468" lon="2.31429">
        <ele>33.599998474121</ele>
        <time>2016-09-26T20:28:51.000Z</time>
      </trkpt>
      <trkpt lat="48.86467" lon="2.31436">
        <ele>34.200000762939</ele>
        <time>2016-09-26T20:28:52.000Z</time>
      </trkpt>
      <trkpt lat="48.86465" lon="2.31513">
        <ele>31.799999237061</ele>
        <time>2016-09-26T20:29:00.000Z</time>
      </trkpt>
      <trkpt lat="48.86467" lon="2.31584">
        <ele>28.799999237061</ele>
        <time>2016-09-26T20:29:06.000Z</time>
      </trkpt>
      <trkpt lat="48.86471" lon="2.31661">
        <ele>27.200000762939</ele>
        <time>2016-09-26T20:29:13.000Z</time>
      </trkpt>
      <trkpt lat="48.86475" lon="2.31735">
        <ele>36</ele>
        <time>2016-09-26T20:29:21.000Z</time>
      </trkpt>
      <trkpt lat="48.86477" lon="2.3175">
        <ele>37.799999237061</ele>
        <time>2016-09-26T20:29:23.000Z</time>
      </trkpt>
      <trkpt lat="48.86478" lon="2.31775">
        <ele>37.799999237061</ele>
        <time>2016-09-26T20:29:26.000Z</time>
      </trkpt>
      <trkpt lat="48.86476" lon="2.31802">
        <ele>36.200000762939</ele>
        <time>2016-09-26T20:29:29.000Z</time>
      </trkpt>
      <trkpt lat="48.8647" lon="2.31826">
        <ele>33.799999237061</ele>
        <time>2016-09-26T20:29:32.000Z</time>
      </trkpt>
      <trkpt lat="48.86464" lon="2.31841">
        <ele>33</ele>
        <time>2016-09-26T20:29:34.000Z</time>
      </trkpt>
      <trkpt lat="48.86443" lon="2.31903">
        <ele>28</ele>
        <time>2016-09-26T20:29:46.000Z</time>
      </trkpt>
      <trkpt lat="48.86423" lon="2.31967">
        <ele>28.799999237061</ele>
        <time>2016-09-26T20:29:57.000Z</time>
      </trkpt>
      <trkpt lat="48.86416" lon="2.31979">
        <ele>29</ele>
        <time>2016-09-26T20:30:01.000Z</time>
      </trkpt>
      <trkpt lat="48.86407" lon="2.31984">
        <ele>28.799999237061</ele>
        <time>2016-09-26T20:31:20.000Z</time>
      </trkpt>
      <trkpt lat="48.86396" lon="2.32051">
        <ele>30.39999961853</ele>
        <time>2016-09-26T20:31:38.000Z</time>
      </trkpt>
      <trkpt lat="48.86392" lon="2.32063">
        <ele>30.200000762939</ele>
        <time>2016-09-26T20:31:40.000Z</time>
      </trkpt>
      <trkpt lat="48.86371" lon="2.32124">
        <ele>29.799999237061</ele>
        <time>2016-09-26T20:31:50.000Z</time>
      </trkpt>
      <trkpt lat="48.8636" lon="2.32167">
        <ele>29.39999961853</ele>
        <time>2016-09-26T20:31:55.000Z</time>
      </trkpt>
      <trkpt lat="48.86342" lon="2.32231">
        <ele>31.799999237061</ele>
        <time>2016-09-26T20:32:01.000Z</time>
      </trkpt>
      <trkpt lat="48.86321" lon="2.32296">
        <ele>30.799999237061</ele>
        <time>2016-09-26T20:32:07.000Z</time>
      </trkpt>
      <trkpt lat="48.86301" lon="2.32362">
        <ele>30</ele>
        <time>2016-09-26T20:32:13.000Z</time>
      </trkpt>
      <trkpt lat="48.86298" lon="2.32374">
        <ele>29.39999961853</ele>
        <time>2016-09-26T20:32:14.000Z</time>
      </trkpt>
      <trkpt lat="48.86276" lon="2.32433">
        <ele>27.60000038147</ele>
        <time>2016-09-26T20:32:19.000Z</time>
      </trkpt>
      <trkpt lat="48.86263" lon="2.3247">
        <ele>28.39999961853</ele>
        <time>2016-09-26T20:32:22.000Z</time>
      </trkpt>
      <trkpt lat="48.8624" lon="2.32539">
        <ele>30</ele>
        <time>2016-09-26T20:32:28.000Z</time>
      </trkpt>
      <trkpt lat="48.86217" lon="2.32605">
        <ele>31</ele>
        <time>2016-09-26T20:32:34.000Z</time>
      </trkpt>
      <trkpt lat="48.86197" lon="2.32671">
        <ele>29.200000762939</ele>
        <time>2016-09-26T20:32:40.000Z</time>
      </trkpt>
      <trkpt lat="48.86193" lon="2.32681">
        <ele>29.60000038147</ele>
        <time>2016-09-26T20:32:41.000Z</time>
      </trkpt>
      <trkpt lat="48.86172" lon="2.32745">
        <ele>31</ele>
        <time>2016-09-26T20:32:47.000Z</time>
      </trkpt>
      <trkpt lat="48.86152" lon="2.32808">
        <ele>31.799999237061</ele>
        <time>2016-09-26T20:32:53.000Z</time>
      </trkpt>
      <trkpt lat="48.8613" lon="2.32878">
        <ele>31.200000762939</ele>
        <time>2016-09-26T20:33:00.000Z</time>
      </trkpt>
      <trkpt lat="48.8611" lon="2.32943">
        <ele>36.400001525879</ele>
        <time>2016-09-26T20:33:09.000Z</time>
      </trkpt>
      <trkpt lat="48.86086" lon="2.32999">
        <ele>43</ele>
        <time>2016-09-26T20:33:23.000Z</time>
      </trkpt>
      <trkpt lat="48.86082" lon="2.33006">
        <ele>42.400001525879</ele>
        <time>2016-09-26T20:34:27.000Z</time>
      </trkpt>
      <trkpt lat="48.86084" lon="2.33002">
        <ele>42.599998474121</ele>
        <time>2016-09-26T20:34:30.000Z</time>
      </trkpt>
      <trkpt lat="48.86089" lon="2.32992">
        <ele>43.200000762939</ele>
        <time>2016-09-26T20:35:17.000Z</time>
      </trkpt>
      <trkpt lat="48.86131" lon="2.3303">
        <ele>41.200000762939</ele>
        <time>2016-09-26T20:35:36.000Z</time>
      </trkpt>
      <trkpt lat="48.86144" lon="2.33044">
        <ele>39.799999237061</ele>
        <time>2016-09-26T20:35:38.000Z</time>
      </trkpt>
      <trkpt lat="48.86193" lon="2.3308">
        <ele>36</ele>
        <time>2016-09-26T20:35:44.000Z</time>
      </trkpt>
      <trkpt lat="48.86243" lon="2.33112">
        <ele>35.799999237061</ele>
        <time>2016-09-26T20:35:49.000Z</time>
      </trkpt>
      <trkpt lat="48.86291" lon="2.33141">
        <ele>36.599998474121</ele>
        <time>2016-09-26T20:35:54.000Z</time>
      </trkpt>
      <trkpt lat="48.8631" lon="2.33173">
        <ele>38.400001525879</ele>
        <time>2016-09-26T20:35:57.000Z</time>
      </trkpt>
      <trkpt lat="48.86331" lon="2.33185">
        <ele>39.599998474121</ele>
        <time>2016-09-26T20:36:02.000Z</time>
      </trkpt>
      <trkpt lat="48.86374" lon="2.33211">
        <ele>42.400001525879</ele>
        <time>2016-09-26T20:36:23.000Z</time>
      </trkpt>
      <trkpt lat="48.86376" lon="2.33222">
        <ele>43.200000762939</ele>
        <time>2016-09-26T20:36:54.000Z</time>
      </trkpt>
      <trkpt lat="48.86357" lon="2.33284">
        <ele>45.799999237061</ele>
        <time>2016-09-26T20:37:19.000Z</time>
      </trkpt>
      <trkpt lat="48.86359" lon="2.33303">
        <ele>46.599998474121</ele>
        <time>2016-09-26T20:37:25.000Z</time>
      </trkpt>
      <trkpt lat="48.86343" lon="2.33373">
        <ele>49</ele>
        <time>2016-09-26T20:37:36.000Z</time>
      </trkpt>
      <trkpt lat="48.86329" lon="2.33404">
        <ele>48.599998474121</ele>
        <time>2016-09-26T20:37:48.000Z</time>
      </trkpt>
      <trkpt lat="48.86312" lon="2.33471">
        <ele>45.599998474121</ele>
        <time>2016-09-26T20:38:05.000Z</time>
      </trkpt>
      <trkpt lat="48.8629" lon="2.33531">
        <ele>45.400001525879</ele>
        <time>2016-09-26T20:38:15.000Z</time>
      </trkpt>
      <trkpt lat="48.86278" lon="2.33602">
        <ele>47.599998474121</ele>
        <time>2016-09-26T20:38:28.000Z</time>
      </trkpt>
      <trkpt lat="48.86267" lon="2.33657">
        <ele>47.200000762939</ele>
        <time>2016-09-26T20:38:37.000Z</time>
      </trkpt>
      <trkpt lat="48.8627" lon="2.33725">
        <ele>46.400001525879</ele>
        <time>2016-09-26T20:38:50.000Z</time>
      </trkpt>
      <trkpt lat="48.86261" lon="2.33772">
        <ele>45.799999237061</ele>
        <time>2016-09-26T20:38:59.000Z</time>
      </trkpt>
      <trkpt lat="48.86242" lon="2.33835">
        <ele>44.400001525879</ele>
        <time>2016-09-26T20:39:11.000Z</time>
      </trkpt>
      <trkpt lat="48.86225" lon="2.33901">
        <ele>46</ele>
        <time>2016-09-26T20:39:24.000Z</time>
      </trkpt>
      <trkpt lat="48.86208" lon="2.33966">
        <ele>47.799999237061</ele>
        <time>2016-09-26T20:39:35.000Z</time>
      </trkpt>
      <trkpt lat="48.86191" lon="2.34031">
        <ele>49</ele>
        <time>2016-09-26T20:39:46.000Z</time>
      </trkpt>
      <trkpt lat="48.86189" lon="2.34043">
        <ele>49</ele>
        <time>2016-09-26T20:39:48.000Z</time>
      </trkpt>
      <trkpt lat="48.86172" lon="2.34108">
        <ele>48.799999237061</ele>
        <time>2016-09-26T20:39:59.000Z</time>
      </trkpt>
      <trkpt lat="48.86157" lon="2.34176">
        <ele>49.200000762939</ele>
        <time>2016-09-26T20:40:12.000Z</time>
      </trkpt>
      <trkpt lat="48.86144" lon="2.34247">
        <ele>49.400001525879</ele>
        <time>2016-09-26T20:40:24.000Z</time>
      </trkpt>
      <trkpt lat="48.86131" lon="2.34314">
        <ele>50</ele>
        <time>2016-09-26T20:40:35.000Z</time>
      </trkpt>
      <trkpt lat="48.8612" lon="2.34371">
        <ele>49.599998474121</ele>
        <time>2016-09-26T20:40:44.000Z</time>
      </trkpt>
      <trkpt lat="48.86116" lon="2.34393">
        <ele>49.599998474121</ele>
        <time>2016-09-26T20:40:47.000Z</time>
      </trkpt>
      <trkpt lat="48.8611" lon="2.34415">
        <ele>49.599998474121</ele>
        <time>2016-09-26T20:40:50.000Z</time>
      </trkpt>
      <trkpt lat="48.86107" lon="2.3449">
        <ele>50.799999237061</ele>
        <time>2016-09-26T20:41:00.000Z</time>
      </trkpt>
      <trkpt lat="48.86099" lon="2.34516">
        <ele>51</ele>
        <time>2016-09-26T20:41:04.000Z</time>
      </trkpt>
      <trkpt lat="48.86069" lon="2.34576">
        <ele>49.799999237061</ele>
        <time>2016-09-26T20:41:14.000Z</time>
      </trkpt>
      <trkpt lat="48.8606" lon="2.34588">
        <ele>48.799999237061</ele>
        <time>2016-09-26T20:41:16.000Z</time>
      </trkpt>
      <trkpt lat="48.86022" lon="2.34619">
        <ele>47.599998474121</ele>
        <time>2016-09-26T20:41:24.000Z</time>
      </trkpt>
      <trkpt lat="48.86008" lon="2.34642">
        <ele>47.200000762939</ele>
        <time>2016-09-26T20:41:28.000Z</time>
      </trkpt>
      <trkpt lat="48.86" lon="2.34649">
        <ele>47</ele>
        <time>2016-09-26T20:41:30.000Z</time>
      </trkpt>
      <trkpt lat="48.85968" lon="2.34691">
        <ele>46.400001525879</ele>
        <time>2016-09-26T20:41:41.000Z</time>
      </trkpt>
      <trkpt lat="48.85971" lon="2.34716">
        <ele>45.599998474121</ele>
        <time>2016-09-26T20:41:49.000Z</time>
      </trkpt>
      <trkpt lat="48.85968" lon="2.3473">
        <ele>45</ele>
        <time>2016-09-26T20:41:54.000Z</time>
      </trkpt>
    </trkseg>
  </trk>
</gpx>